Time,TemperatureF,DewpointF,PressureIn,WindDirection,WindDirectionDegrees,WindSpeedMPH,WindSpeedGustMPH,Humidity,HourlyPrecipIn,Conditions,Clouds,dailyrainin,SoftwareType,DateUTC
2013-04-25 00:01:00,63.0,57.8,30.02,WSW,240,2.0,3.0,83,0.00,,,0.00,Wunderground v.1.15,2013-04-25 04:01:00,
2013-04-25 00:02:00,63.0,57.8,30.02,SW,232,0.0,3.0,83,0.00,,,0.00,Wunderground v.1.15,2013-04-25 04:02:00,
2013-04-25 00:03:00,62.9,57.7,30.02,SW,232,0.0,3.0,83,0.00,,,0.00,Wunderground v.1.15,2013-04-25 04:03:00,
2013-04-25 00:04:00,62.9,57.7,30.02,SW,232,1.0,3.0,83,0.00,,,0.00,Wunderground v.1.15,2013-04-25 04:04:00,
2013-04-25 00:07:00,62.8,57.6,30.02,SW,236,1.0,3.0,83,0.00,,,0.00,Wunderground v.1.15,2013-04-25 04:07:00,
2013-04-25 00:08:00,62.7,57.5,30.02,SW,224,2.0,3.0,83,0.00,,,0.00,Wunderground v.1.15,2013-04-25 04:08:00,
2013-04-25 00:09:00,62.7,57.5,30.02,WSW,249,1.0,3.0,83,0.00,,,0.00,Wunderground v.1.15,2013-04-25 04:09:00,
2013-04-25 00:13:00,62.6,57.7,30.02,WSW,240,1.0,3.0,84,0.00,,,0.00,Wunderground v.1.15,2013-04-25 04:13:00,
2013-04-25 00:14:00,62.6,57.7,30.02,SW,234,1.0,3.0,84,0.00,,,0.00,Wunderground v.1.15,2013-04-25 04:14:00,
2013-04-25 00:15:00,62.7,57.8,30.02,West,267,1.0,3.0,84,0.00,,,0.00,Wunderground v.1.15,2013-04-25 04:15:00,
2013-04-25 00:17:00,62.6,57.7,30.02,WSW,240,1.0,3.0,84,0.00,,,0.00,Wunderground v.1.15,2013-04-25 04:17:00,
2013-04-25 00:21:00,62.5,57.6,30.03,WSW,253,0.0,2.0,84,0.00,,,0.00,Wunderground v.1.15,2013-04-25 04:21:00,
2013-04-25 00:22:00,62.4,57.5,30.03,SW,218,5.0,5.0,84,0.00,,,0.00,Wunderground v.1.15,2013-04-25 04:22:00,
2013-04-25 00:23:00,62.4,57.8,30.03,WSW,247,1.0,5.0,85,0.00,,,0.00,Wunderground v.1.15,2013-04-25 04:23:00,
2013-04-25 00:27:00,62.3,57.7,30.03,WSW,245,1.0,5.0,85,0.00,,,0.00,Wunderground v.1.15,2013-04-25 04:27:00,
2013-04-25 00:28:00,62.2,57.6,30.03,WSW,256,1.0,5.0,85,0.00,,,0.00,Wunderground v.1.15,2013-04-25 04:28:00,
2013-04-25 00:29:00,62.2,57.6,30.03,SW,226,1.0,5.0,85,0.00,,,0.00,Wunderground v.1.15,2013-04-25 04:29:00,
2013-04-25 00:33:00,62.0,57.4,30.03,West,280,0.0,2.0,85,0.00,,,0.00,Wunderground v.1.15,2013-04-25 04:33:00,
2013-04-25 00:34:00,62.0,57.8,30.03,WNW,283,0.0,2.0,86,0.00,,,0.00,Wunderground v.1.15,2013-04-25 04:34:00,
2013-04-25 00:38:00,61.9,57.7,30.04,West,264,0.0,2.0,86,0.00,,,0.00,Wunderground v.1.15,2013-04-25 04:38:00,
2013-04-25 00:39:00,61.9,57.7,30.04,WSW,258,1.0,2.0,86,0.00,,,0.00,Wunderground v.1.15,2013-04-25 04:39:00,
2013-04-25 00:40:00,61.9,57.7,30.04,WSW,253,0.0,0.0,86,0.00,,,0.00,Wunderground v.1.15,2013-04-25 04:40:00,
2013-04-25 00:41:00,61.9,57.7,30.04,WSW,252,0.0,0.0,86,0.00,,,0.00,Wunderground v.1.15,2013-04-25 04:41:00,
2013-04-25 00:47:00,61.8,57.6,30.04,WSW,240,0.0,0.0,86,0.00,,,0.00,Wunderground v.1.15,2013-04-25 04:47:00,
2013-04-25 00:48:00,61.7,57.8,30.04,WSW,240,0.0,0.0,87,0.00,,,0.00,Wunderground v.1.15,2013-04-25 04:48:00,
2013-04-25 00:49:00,61.7,57.8,30.04,WSW,253,0.0,0.0,87,0.00,,,0.00,Wunderground v.1.15,2013-04-25 04:49:00,
2013-04-25 00:50:00,61.7,57.8,30.04,SW,225,1.0,1.0,87,0.00,,,0.00,Wunderground v.1.15,2013-04-25 04:50:00,
2013-04-25 00:54:00,61.7,57.8,30.04,SW,220,0.0,1.0,87,0.00,,,0.00,Wunderground v.1.15,2013-04-25 04:54:00,
2013-04-25 00:56:00,61.7,57.8,30.04,SW,221,0.0,1.0,87,0.00,,,0.00,Wunderground v.1.15,2013-04-25 04:56:00,
2013-04-25 01:00:00,61.6,57.7,30.04,SW,221,0.0,0.0,87,0.00,,,0.00,Wunderground v.1.15,2013-04-25 05:00:00,
2013-04-25 01:01:00,61.6,57.7,30.04,SW,221,0.0,0.0,87,0.00,,,0.00,Wunderground v.1.15,2013-04-25 05:01:00,
2013-04-25 01:04:00,61.5,57.6,30.04,SW,229,0.0,1.0,87,0.00,,,0.00,Wunderground v.1.15,2013-04-25 05:04:00,
2013-04-25 01:06:00,61.5,57.6,30.04,SW,229,0.0,1.0,87,0.00,,,0.00,Wunderground v.1.15,2013-04-25 05:06:00,
2013-04-25 01:07:00,61.5,57.6,30.04,SW,229,1.0,1.0,87,0.00,,,0.00,Wunderground v.1.15,2013-04-25 05:07:00,
2013-04-25 01:10:00,61.4,57.5,30.04,SW,229,0.0,1.0,87,0.00,,,0.00,Wunderground v.1.15,2013-04-25 05:10:00,
2013-04-25 01:12:00,61.3,57.4,30.04,SW,229,0.0,1.0,87,0.00,,,0.00,Wunderground v.1.15,2013-04-25 05:12:00,
2013-04-25 01:13:00,61.3,57.7,30.04,SW,229,0.0,1.0,88,0.00,,,0.00,Wunderground v.1.15,2013-04-25 05:13:00,
2013-04-25 01:14:00,61.3,57.7,30.04,SW,229,0.0,1.0,88,0.00,,,0.00,Wunderground v.1.15,2013-04-25 05:14:00,
2013-04-25 01:17:00,61.2,57.6,30.04,SW,229,0.0,1.0,88,0.00,,,0.00,Wunderground v.1.15,2013-04-25 05:17:00,
2013-04-25 01:18:00,61.2,57.6,30.04,SW,229,0.0,1.0,88,0.00,,,0.00,Wunderground v.1.15,2013-04-25 05:18:00,
2013-04-25 01:20:00,61.2,57.6,30.04,SW,229,0.0,0.0,88,0.00,,,0.00,Wunderground v.1.15,2013-04-25 05:20:00,
2013-04-25 01:23:00,61.2,57.6,30.05,SW,229,0.0,0.0,88,0.00,,,0.00,Wunderground v.1.15,2013-04-25 05:23:00,
2013-04-25 01:25:00,61.2,57.6,30.05,SW,229,0.0,0.0,88,0.00,,,0.00,Wunderground v.1.15,2013-04-25 05:25:00,
2013-04-25 01:27:00,61.2,57.6,30.05,WSW,245,0.0,0.0,88,0.00,,,0.00,Wunderground v.1.15,2013-04-25 05:27:00,
2013-04-25 01:28:00,61.2,57.6,30.05,WSW,245,0.0,0.0,88,0.00,,,0.00,Wunderground v.1.15,2013-04-25 05:28:00,
2013-04-25 01:30:00,61.2,57.6,30.04,WSW,245,0.0,0.0,88,0.00,,,0.00,Wunderground v.1.15,2013-04-25 05:30:00,
2013-04-25 01:34:00,61.3,57.7,30.04,WSW,245,0.0,0.0,88,0.00,,,0.00,Wunderground v.1.15,2013-04-25 05:34:00,
2013-04-25 01:35:00,61.3,57.7,30.05,WSW,245,0.0,0.0,88,0.00,,,0.00,Wunderground v.1.15,2013-04-25 05:35:00,
2013-04-25 01:37:00,61.3,57.7,30.05,WSW,245,0.0,0.0,88,0.00,,,0.00,Wunderground v.1.15,2013-04-25 05:37:00,
2013-04-25 01:40:00,61.3,57.7,30.05,WSW,245,0.0,0.0,88,0.00,,,0.00,Wunderground v.1.15,2013-04-25 05:40:00,
2013-04-25 01:42:00,61.3,57.4,30.05,WSW,246,0.0,0.0,87,0.00,,,0.00,Wunderground v.1.15,2013-04-25 05:42:00,
2013-04-25 01:44:00,61.3,57.4,30.05,WSW,240,0.0,0.0,87,0.00,,,0.00,Wunderground v.1.15,2013-04-25 05:44:00,
2013-04-25 01:45:00,61.3,57.1,30.05,SW,225,0.0,0.0,86,0.00,,,0.00,Wunderground v.1.15,2013-04-25 05:45:00,
2013-04-25 01:46:00,61.3,56.8,30.05,SW,226,0.0,0.0,85,0.00,,,0.00,Wunderground v.1.15,2013-04-25 05:46:00,
2013-04-25 01:47:00,61.3,56.8,30.05,SW,225,0.0,0.0,85,0.00,,,0.00,Wunderground v.1.15,2013-04-25 05:47:00,
2013-04-25 01:48:00,61.4,56.8,30.05,SW,229,1.0,1.0,85,0.00,,,0.00,Wunderground v.1.15,2013-04-25 05:48:00,
2013-04-25 01:50:00,61.3,56.4,30.05,SW,220,2.0,2.0,84,0.00,,,0.00,Wunderground v.1.15,2013-04-25 05:50:00,
2013-04-25 01:51:00,61.4,56.2,30.05,SW,221,2.0,2.0,83,0.00,,,0.00,Wunderground v.1.15,2013-04-25 05:51:00,
2013-04-25 01:54:00,61.4,55.9,30.05,SW,232,2.0,2.0,82,0.00,,,0.00,Wunderground v.1.15,2013-04-25 05:54:00,
2013-04-25 01:55:00,61.4,55.5,30.05,SW,231,1.0,2.0,81,0.00,,,0.00,Wunderground v.1.15,2013-04-25 05:55:00,
2013-04-25 01:56:00,61.4,55.5,30.05,West,269,1.0,2.0,81,0.00,,,0.00,Wunderground v.1.15,2013-04-25 05:56:00,
2013-04-25 02:00:00,61.4,54.5,30.05,SW,235,1.0,1.0,78,0.00,,,0.00,Wunderground v.1.15,2013-04-25 06:00:00,
2013-04-25 02:01:00,61.4,54.5,30.05,SW,235,0.0,1.0,78,0.00,,,0.00,Wunderground v.1.15,2013-04-25 06:01:00,
2013-04-25 02:05:00,61.4,53.4,30.05,WSW,258,1.0,3.0,75,0.00,,,0.00,Wunderground v.1.15,2013-04-25 06:05:00,
2013-04-25 02:06:00,61.5,53.9,30.05,West,259,0.0,3.0,76,0.00,,,0.00,Wunderground v.1.15,2013-04-25 06:06:00,
2013-04-25 02:07:00,61.4,53.8,30.05,SW,215,1.0,3.0,76,0.00,,,0.00,Wunderground v.1.15,2013-04-25 06:07:00,
2013-04-25 02:10:00,61.4,53.0,30.05,WSW,245,0.0,1.0,74,0.00,,,0.00,Wunderground v.1.15,2013-04-25 06:10:00,
2013-04-25 02:11:00,61.4,53.0,30.05,WSW,245,0.0,1.0,74,0.00,,,0.00,Wunderground v.1.15,2013-04-25 06:11:00,
2013-04-25 02:12:00,61.4,53.0,30.05,WSW,246,0.0,1.0,74,0.00,,,0.00,Wunderground v.1.15,2013-04-25 06:12:00,
2013-04-25 02:15:00,61.4,52.7,30.05,SW,226,0.0,1.0,73,0.00,,,0.00,Wunderground v.1.15,2013-04-25 06:15:00,
2013-04-25 02:16:00,61.4,52.7,30.05,SW,226,0.0,1.0,73,0.00,,,0.00,Wunderground v.1.15,2013-04-25 06:16:00,
2013-04-25 02:17:00,61.4,52.7,30.05,SW,231,0.0,1.0,73,0.00,,,0.00,Wunderground v.1.15,2013-04-25 06:17:00,
2013-04-25 02:20:00,61.3,52.6,30.05,West,280,0.0,0.0,73,0.00,,,0.00,Wunderground v.1.15,2013-04-25 06:20:00,
2013-04-25 02:21:00,61.3,52.2,30.05,West,280,0.0,0.0,72,0.00,,,0.00,Wunderground v.1.15,2013-04-25 06:21:00,
2013-04-25 02:22:00,61.3,52.2,30.05,West,280,0.0,0.0,72,0.00,,,0.00,Wunderground v.1.15,2013-04-25 06:22:00,
2013-04-25 02:26:00,61.1,52.4,30.05,West,276,0.0,0.0,73,0.00,,,0.00,Wunderground v.1.15,2013-04-25 06:26:00,
2013-04-25 02:27:00,61.1,52.4,30.04,West,276,0.0,0.0,73,0.00,,,0.00,Wunderground v.1.15,2013-04-25 06:27:00,
2013-04-25 02:28:00,61.1,52.4,30.04,West,276,0.0,0.0,73,0.00,,,0.00,Wunderground v.1.15,2013-04-25 06:28:00,
2013-04-25 02:31:00,61.0,52.3,30.04,West,276,0.0,0.0,73,0.00,,,0.00,Wunderground v.1.15,2013-04-25 06:31:00,
2013-04-25 02:32:00,61.0,52.3,30.04,West,276,0.0,0.0,73,0.00,,,0.00,Wunderground v.1.15,2013-04-25 06:32:00,
2013-04-25 02:34:00,60.9,52.2,30.04,West,276,0.0,0.0,73,0.00,,,0.00,Wunderground v.1.15,2013-04-25 06:34:00,
2013-04-25 02:36:00,60.9,52.2,30.04,West,276,0.0,0.0,73,0.00,,,0.00,Wunderground v.1.15,2013-04-25 06:36:00,
2013-04-25 02:37:00,60.8,52.1,30.04,West,276,0.0,0.0,73,0.00,,,0.00,Wunderground v.1.15,2013-04-25 06:37:00,
2013-04-25 02:40:00,60.8,52.1,30.04,West,276,0.0,0.0,73,0.00,,,0.00,Wunderground v.1.15,2013-04-25 06:40:00,
2013-04-25 02:41:00,60.8,52.1,30.04,West,276,0.0,0.0,73,0.00,,,0.00,Wunderground v.1.15,2013-04-25 06:41:00,
2013-04-25 02:42:00,60.7,52.0,30.04,West,276,0.0,0.0,73,0.00,,,0.00,Wunderground v.1.15,2013-04-25 06:42:00,
2013-04-25 02:43:00,60.7,52.4,30.04,NNE,20,0.0,0.0,74,0.00,,,0.00,Wunderground v.1.15,2013-04-25 06:43:00,
2013-04-25 02:45:00,60.7,52.0,30.04,NNW,335,0.0,2.0,73,0.00,,,0.00,Wunderground v.1.15,2013-04-25 06:45:00,
2013-04-25 02:46:00,60.7,52.7,30.04,West,270,2.0,2.0,75,0.00,,,0.00,Wunderground v.1.15,2013-04-25 06:46:00,
2013-04-25 02:47:00,60.6,52.3,30.04,NE,46,2.0,2.0,74,0.00,,,0.00,Wunderground v.1.15,2013-04-25 06:47:00,
2013-04-25 02:48:00,60.6,51.9,30.04,NE,53,0.0,2.0,73,0.00,,,0.00,Wunderground v.1.15,2013-04-25 06:48:00,
2013-04-25 02:50:00,60.6,52.3,30.05,NW,316,1.0,1.0,74,0.00,,,0.00,Wunderground v.1.15,2013-04-25 06:50:00,
2013-04-25 02:52:00,60.5,51.4,30.05,NNE,17,2.0,3.0,72,0.00,,,0.00,Wunderground v.1.15,2013-04-25 06:52:00,
2013-04-25 02:53:00,60.5,51.8,30.05,ESE,123,1.0,3.0,73,0.00,,,0.00,Wunderground v.1.15,2013-04-25 06:53:00,
2013-04-25 02:55:00,60.4,51.3,30.05,WNW,290,1.0,3.0,72,0.00,,,0.00,Wunderground v.1.15,2013-04-25 06:55:00,
2013-04-25 02:57:00,60.4,51.7,30.05,WNW,288,0.0,3.0,73,0.00,,,0.00,Wunderground v.1.15,2013-04-25 06:57:00,
2013-04-25 02:58:00,60.3,51.2,30.05,ENE,68,2.0,3.0,72,0.00,,,0.00,Wunderground v.1.15,2013-04-25 06:58:00,
2013-04-25 03:00:00,60.3,51.6,30.06,NW,309,1.0,1.0,73,0.00,,,0.00,Wunderground v.1.15,2013-04-25 07:00:00,
2013-04-25 03:02:00,60.2,51.1,30.06,ENE,68,2.0,3.0,72,0.00,,,0.00,Wunderground v.1.15,2013-04-25 07:02:00,
2013-04-25 03:03:00,60.1,51.0,30.06,South,186,1.0,3.0,72,0.00,,,0.00,Wunderground v.1.15,2013-04-25 07:03:00,
2013-04-25 03:04:00,60.1,51.0,30.06,SE,135,2.0,3.0,72,0.00,,,0.00,Wunderground v.1.15,2013-04-25 07:04:00,
2013-04-25 03:06:00,60.0,50.9,30.06,NE,51,1.0,3.0,72,0.00,,,0.00,Wunderground v.1.15,2013-04-25 07:06:00,
2013-04-25 03:07:00,60.0,50.9,30.07,NW,310,2.0,3.0,72,0.00,,,0.00,Wunderground v.1.15,2013-04-25 07:07:00,
2013-04-25 03:09:00,59.9,50.8,30.07,ENE,62,1.0,3.0,72,0.00,,,0.00,Wunderground v.1.15,2013-04-25 07:09:00,
2013-04-25 03:11:00,59.7,50.7,30.07,NW,325,2.0,4.0,72,0.00,,,0.00,Wunderground v.1.15,2013-04-25 07:11:00,
2013-04-25 03:12:00,59.7,50.7,30.07,North,4,1.0,4.0,72,0.00,,,0.00,Wunderground v.1.15,2013-04-25 07:12:00,
2013-04-25 03:14:00,59.6,50.2,30.06,NW,322,2.0,4.0,71,0.00,,,0.00,Wunderground v.1.15,2013-04-25 07:14:00,
2013-04-25 03:16:00,59.4,50.4,30.07,NNE,27,1.0,4.0,72,0.00,,,0.00,Wunderground v.1.15,2013-04-25 07:16:00,
2013-04-25 03:18:00,59.3,49.9,30.07,NNE,21,2.0,4.0,71,0.00,,,0.00,Wunderground v.1.15,2013-04-25 07:18:00,
2013-04-25 03:19:00,59.3,49.9,30.07,North,355,1.0,4.0,71,0.00,,,0.00,Wunderground v.1.15,2013-04-25 07:19:00,
2013-04-25 03:22:00,59.1,49.7,30.07,NE,44,1.0,4.0,71,0.00,,,0.00,Wunderground v.1.15,2013-04-25 07:22:00,
2013-04-25 03:23:00,59.1,49.7,30.07,WNW,295,4.0,4.0,71,0.00,,,0.00,Wunderground v.1.15,2013-04-25 07:23:00,
2013-04-25 03:24:00,59.0,49.6,30.07,ENE,75,2.0,5.0,71,0.00,,,0.00,Wunderground v.1.15,2013-04-25 07:24:00,
2013-04-25 03:25:00,58.9,49.5,30.07,ENE,60,1.0,5.0,71,0.00,,,0.00,Wunderground v.1.15,2013-04-25 07:25:00,
2013-04-25 03:27:00,58.8,49.4,30.07,ENE,59,1.0,5.0,71,0.00,,,0.00,Wunderground v.1.15,2013-04-25 07:27:00,
2013-04-25 03:29:00,58.7,49.3,30.07,ENE,59,1.0,5.0,71,0.00,,,0.00,Wunderground v.1.15,2013-04-25 07:29:00,
2013-04-25 03:30:00,58.7,49.3,30.07,ENE,70,2.0,3.0,71,0.00,,,0.00,Wunderground v.1.15,2013-04-25 07:30:00,
2013-04-25 03:31:00,58.6,49.2,30.07,ENE,66,1.0,3.0,71,0.00,,,0.00,Wunderground v.1.15,2013-04-25 07:31:00,
2013-04-25 03:32:00,58.5,49.5,30.07,ENE,66,0.0,3.0,72,0.00,,,0.00,Wunderground v.1.15,2013-04-25 07:32:00,
2013-04-25 03:34:00,58.5,49.5,30.07,WNW,287,1.0,3.0,72,0.00,,,0.00,Wunderground v.1.15,2013-04-25 07:34:00,
2013-04-25 03:35:00,58.5,49.5,30.07,WNW,286,0.0,3.0,72,0.00,,,0.00,Wunderground v.1.15,2013-04-25 07:35:00,
2013-04-25 03:36:00,58.4,49.4,30.07,NW,310,0.0,3.0,72,0.00,,,0.00,Wunderground v.1.15,2013-04-25 07:36:00,
2013-04-25 03:37:00,58.3,49.3,30.07,NNE,20,0.0,3.0,72,0.00,,,0.00,Wunderground v.1.15,2013-04-25 07:37:00,
2013-04-25 03:39:00,58.2,49.6,30.07,NNE,20,0.0,3.0,73,0.00,,,0.00,Wunderground v.1.15,2013-04-25 07:39:00,
2013-04-25 03:40:00,58.2,49.6,30.08,NNE,23,0.0,1.0,73,0.00,,,0.00,Wunderground v.1.15,2013-04-25 07:40:00,
2013-04-25 03:41:00,58.1,49.5,30.08,NE,38,2.0,2.0,73,0.00,,,0.00,Wunderground v.1.15,2013-04-25 07:41:00,
2013-04-25 03:42:00,58.1,49.1,30.08,NNW,335,2.0,3.0,72,0.00,,,0.00,Wunderground v.1.15,2013-04-25 07:42:00,
2013-04-25 03:44:00,58.0,49.0,30.08,NNE,13,0.0,3.0,72,0.00,,,0.00,Wunderground v.1.15,2013-04-25 07:44:00,
2013-04-25 03:45:00,57.9,48.9,30.08,West,281,1.0,3.0,72,0.00,,,0.00,Wunderground v.1.15,2013-04-25 07:45:00,
2013-04-25 03:46:00,57.9,49.3,30.08,West,281,1.0,3.0,73,0.00,,,0.00,Wunderground v.1.15,2013-04-25 07:46:00,
2013-04-25 03:47:00,57.8,48.8,30.08,ENE,74,2.0,3.0,72,0.00,,,0.00,Wunderground v.1.15,2013-04-25 07:47:00,
2013-04-25 03:49:00,57.7,48.4,30.07,NE,45,4.0,4.0,71,0.00,,,0.00,Wunderground v.1.15,2013-04-25 07:49:00,
2013-04-25 03:50:00,57.6,47.9,30.07,NNE,30,2.0,5.0,70,0.00,,,0.00,Wunderground v.1.15,2013-04-25 07:50:00,
2013-04-25 03:51:00,57.5,48.2,30.07,NNE,30,1.0,5.0,71,0.00,,,0.00,Wunderground v.1.15,2013-04-25 07:51:00,
2013-04-25 03:53:00,57.4,48.1,30.07,North,353,1.0,5.0,71,0.00,,,0.00,Wunderground v.1.15,2013-04-25 07:53:00,
2013-04-25 03:55:00,57.2,47.9,30.07,NNE,33,2.0,5.0,71,0.00,,,0.00,Wunderground v.1.15,2013-04-25 07:55:00,
2013-04-25 03:56:00,57.1,47.8,30.08,NNE,14,2.0,5.0,71,0.00,,,0.00,Wunderground v.1.15,2013-04-25 07:56:00,
2013-04-25 03:58:00,56.9,47.2,30.08,West,266,1.0,8.0,70,0.00,,,0.00,Wunderground v.1.15,2013-04-25 07:58:00,
2013-04-25 04:00:00,56.7,47.4,30.08,NNE,12,2.0,2.0,71,0.00,,,0.00,Wunderground v.1.15,2013-04-25 08:00:00,
2013-04-25 04:01:00,56.8,47.5,30.08,North,8,1.0,2.0,71,0.00,,,0.00,Wunderground v.1.15,2013-04-25 08:01:00,
2013-04-25 04:03:00,56.6,47.3,30.08,ENE,68,1.0,4.0,71,0.00,,,0.00,Wunderground v.1.15,2013-04-25 08:03:00,
2013-04-25 04:05:00,56.5,47.2,30.08,NE,36,1.0,4.0,71,0.00,,,0.00,Wunderground v.1.15,2013-04-25 08:05:00,
2013-04-25 04:06:00,56.5,47.2,30.08,North,10,3.0,4.0,71,0.00,,,0.00,Wunderground v.1.15,2013-04-25 08:06:00,
2013-04-25 04:07:00,56.5,47.2,30.08,NE,46,3.0,4.0,71,0.00,,,0.00,Wunderground v.1.15,2013-04-25 08:07:00,
2013-04-25 04:08:00,56.4,47.1,30.09,NNW,346,4.0,5.0,71,0.00,,,0.00,Wunderground v.1.15,2013-04-25 08:08:00,
2013-04-25 04:10:00,56.3,47.0,30.09,NNE,19,0.0,3.0,71,0.00,,,0.00,Wunderground v.1.15,2013-04-25 08:10:00,
2013-04-25 04:11:00,56.3,47.0,30.09,ENE,72,1.0,3.0,71,0.00,,,0.00,Wunderground v.1.15,2013-04-25 08:11:00,
2013-04-25 04:12:00,56.3,47.0,30.09,NNW,340,2.0,4.0,71,0.00,,,0.00,Wunderground v.1.15,2013-04-25 08:12:00,
2013-04-25 04:13:00,56.3,46.6,30.09,WNW,297,6.0,6.0,70,0.00,,,0.00,Wunderground v.1.15,2013-04-25 08:13:00,
2013-04-25 04:16:00,56.2,46.5,30.09,ENE,73,2.0,6.0,70,0.00,,,0.00,Wunderground v.1.15,2013-04-25 08:16:00,
2013-04-25 04:17:00,56.2,46.5,30.09,NW,316,3.0,6.0,70,0.00,,,0.00,Wunderground v.1.15,2013-04-25 08:17:00,
2013-04-25 04:18:00,56.2,46.5,30.09,WNW,300,3.0,6.0,70,0.00,,,0.00,Wunderground v.1.15,2013-04-25 08:18:00,
2013-04-25 04:19:00,56.2,46.5,30.09,SSW,200,4.0,6.0,70,0.00,,,0.00,Wunderground v.1.15,2013-04-25 08:19:00,
2013-04-25 04:21:00,56.1,46.4,30.09,ENE,62,1.0,4.0,70,0.00,,,0.00,Wunderground v.1.15,2013-04-25 08:21:00,
2013-04-25 04:22:00,56.1,46.4,30.09,NW,308,1.0,4.0,70,0.00,,,0.00,Wunderground v.1.15,2013-04-25 08:22:00,
2013-04-25 04:24:00,56.1,46.4,30.09,NE,55,0.0,4.0,70,0.00,,,0.00,Wunderground v.1.15,2013-04-25 08:24:00,
2013-04-25 04:26:00,56.0,46.7,30.09,ESE,108,2.0,4.0,71,0.00,,,0.00,Wunderground v.1.15,2013-04-25 08:26:00,
2013-04-25 04:27:00,56.0,46.7,30.09,NNE,30,3.0,4.0,71,0.00,,,0.00,Wunderground v.1.15,2013-04-25 08:27:00,
2013-04-25 04:29:00,55.8,46.2,30.10,North,349,3.0,5.0,70,0.00,,,0.00,Wunderground v.1.15,2013-04-25 08:29:00,
2013-04-25 04:31:00,55.8,46.2,30.10,North,358,2.0,4.0,70,0.00,,,0.00,Wunderground v.1.15,2013-04-25 08:31:00,
2013-04-25 04:32:00,55.7,46.4,30.10,NNE,18,4.0,4.0,71,0.00,,,0.00,Wunderground v.1.15,2013-04-25 08:32:00,
2013-04-25 04:34:00,55.6,46.3,30.10,NNE,20,1.0,5.0,71,0.00,,,0.00,Wunderground v.1.15,2013-04-25 08:34:00,
2013-04-25 04:35:00,55.6,46.3,30.10,NNE,15,4.0,5.0,71,0.00,,,0.00,Wunderground v.1.15,2013-04-25 08:35:00,
2013-04-25 04:36:00,55.5,45.9,30.10,WNW,290,1.0,7.0,70,0.00,,,0.00,Wunderground v.1.15,2013-04-25 08:36:00,
2013-04-25 04:37:00,55.5,45.9,30.10,NE,46,6.0,7.0,70,0.00,,,0.00,Wunderground v.1.15,2013-04-25 08:37:00,
2013-04-25 04:39:00,55.5,45.9,30.10,WNW,297,1.0,7.0,70,0.00,,,0.00,Wunderground v.1.15,2013-04-25 08:39:00,
2013-04-25 04:40:00,55.4,45.8,30.10,NW,314,1.0,2.0,70,0.00,,,0.00,Wunderground v.1.15,2013-04-25 08:40:00,
2013-04-25 04:41:00,55.4,46.2,30.11,WNW,296,4.0,7.0,71,0.00,,,0.00,Wunderground v.1.15,2013-04-25 08:41:00,
2013-04-25 04:42:00,55.3,45.7,30.11,NE,41,1.0,7.0,70,0.00,,,0.00,Wunderground v.1.15,2013-04-25 08:42:00,
2013-04-25 04:43:00,55.3,45.7,30.11,NW,319,2.0,7.0,70,0.00,,,0.00,Wunderground v.1.15,2013-04-25 08:43:00,
2013-04-25 04:45:00,55.3,45.7,30.11,NE,44,5.0,7.0,70,0.00,,,0.00,Wunderground v.1.15,2013-04-25 08:45:00,
2013-04-25 04:47:00,55.1,45.5,30.11,ENE,78,2.0,7.0,70,0.00,,,0.00,Wunderground v.1.15,2013-04-25 08:47:00,
2013-04-25 04:48:00,55.1,45.5,30.11,ENE,60,2.0,7.0,70,0.00,,,0.00,Wunderground v.1.15,2013-04-25 08:48:00,
2013-04-25 04:50:00,55.1,45.5,30.11,NNE,12,2.0,2.0,70,0.00,,,0.00,Wunderground v.1.15,2013-04-25 08:50:00,
2013-04-25 04:52:00,54.9,44.9,30.11,NNW,335,1.0,8.0,69,0.00,,,0.00,Wunderground v.1.15,2013-04-25 08:52:00,
2013-04-25 04:53:00,54.9,44.9,30.11,NNW,335,1.0,8.0,69,0.00,,,0.00,Wunderground v.1.15,2013-04-25 08:53:00,
2013-04-25 04:54:00,54.8,44.8,30.11,NE,41,1.0,8.0,69,0.00,,,0.00,Wunderground v.1.15,2013-04-25 08:54:00,
2013-04-25 04:55:00,54.7,45.1,30.11,WNW,300,3.0,8.0,70,0.00,,,0.00,Wunderground v.1.15,2013-04-25 08:55:00,
2013-04-25 04:57:00,54.6,44.6,30.11,ENE,70,2.0,8.0,69,0.00,,,0.00,Wunderground v.1.15,2013-04-25 08:57:00,
2013-04-25 04:58:00,54.5,44.5,30.11,ENE,60,2.0,8.0,69,0.00,,,0.00,Wunderground v.1.15,2013-04-25 08:58:00,
2013-04-25 04:59:00,54.5,44.5,30.12,NE,39,7.0,8.0,69,0.00,,,0.00,Wunderground v.1.15,2013-04-25 08:59:00,
2013-04-25 05:00:00,54.4,44.4,30.11,NNE,15,0.0,4.0,69,0.00,,,0.00,Wunderground v.1.15,2013-04-25 09:00:00,
2013-04-25 05:02:00,54.3,44.3,30.12,NE,53,4.0,11.0,69,0.00,,,0.00,Wunderground v.1.15,2013-04-25 09:02:00,
2013-04-25 05:04:00,54.2,43.9,30.12,North,351,5.0,11.0,68,0.00,,,0.00,Wunderground v.1.15,2013-04-25 09:04:00,
2013-04-25 05:05:00,54.1,43.8,30.12,NE,43,4.0,11.0,68,0.00,,,0.00,Wunderground v.1.15,2013-04-25 09:05:00,
2013-04-25 05:08:00,54.0,44.1,30.12,ENE,63,0.0,11.0,69,0.00,,,0.00,Wunderground v.1.15,2013-04-25 09:08:00,
2013-04-25 05:09:00,53.9,43.6,30.12,West,278,1.0,11.0,68,0.00,,,0.00,Wunderground v.1.15,2013-04-25 09:09:00,
2013-04-25 05:10:00,53.8,43.5,30.12,ENE,68,3.0,4.0,68,0.00,,,0.00,Wunderground v.1.15,2013-04-25 09:10:00,
2013-04-25 05:13:00,53.7,43.4,30.12,ESE,122,1.0,5.0,68,0.00,,,0.00,Wunderground v.1.15,2013-04-25 09:13:00,
2013-04-25 05:14:00,53.7,43.4,30.12,NE,39,2.0,5.0,68,0.00,,,0.00,Wunderground v.1.15,2013-04-25 09:14:00,
2013-04-25 05:15:00,53.6,43.3,30.12,WNW,300,1.0,5.0,68,0.00,,,0.00,Wunderground v.1.15,2013-04-25 09:15:00,
2013-04-25 05:19:00,53.3,43.0,30.12,WNW,284,0.0,5.0,68,0.00,,,0.00,Wunderground v.1.15,2013-04-25 09:19:00,
2013-04-25 05:20:00,53.2,42.9,30.12,WNW,293,4.0,4.0,68,0.00,,,0.00,Wunderground v.1.15,2013-04-25 09:20:00,
2013-04-25 05:21:00,53.2,42.9,30.12,NE,49,1.0,4.0,68,0.00,,,0.00,Wunderground v.1.15,2013-04-25 09:21:00,
2013-04-25 05:24:00,53.0,42.7,30.13,NNE,27,2.0,5.0,68,0.00,,,0.00,Wunderground v.1.15,2013-04-25 09:24:00,
2013-04-25 05:25:00,52.9,42.6,30.13,NE,35,2.0,5.0,68,0.00,,,0.00,Wunderground v.1.15,2013-04-25 09:25:00,
2013-04-25 05:26:00,52.9,42.6,30.13,ENE,75,3.0,5.0,68,0.00,,,0.00,Wunderground v.1.15,2013-04-25 09:26:00,
2013-04-25 05:29:00,52.8,42.9,30.13,NNE,23,0.0,5.0,69,0.00,,,0.00,Wunderground v.1.15,2013-04-25 09:29:00,
2013-04-25 05:30:00,52.7,42.8,30.13,East,88,1.0,4.0,69,0.00,,,0.00,Wunderground v.1.15,2013-04-25 09:30:00,
2013-04-25 05:31:00,52.7,42.4,30.13,NW,322,1.0,4.0,68,0.00,,,0.00,Wunderground v.1.15,2013-04-25 09:31:00,
2013-04-25 05:34:00,52.7,42.8,30.13,ENE,62,2.0,4.0,69,0.00,,,0.00,Wunderground v.1.15,2013-04-25 09:34:00,
2013-04-25 05:35:00,52.7,42.8,30.13,NNE,23,1.0,4.0,69,0.00,,,0.00,Wunderground v.1.15,2013-04-25 09:35:00,
2013-04-25 05:36:00,52.7,42.4,30.13,NE,35,2.0,4.0,68,0.00,,,0.00,Wunderground v.1.15,2013-04-25 09:36:00,
2013-04-25 05:39:00,52.6,42.7,30.13,NNE,14,1.0,4.0,69,0.00,,,0.00,Wunderground v.1.15,2013-04-25 09:39:00,
2013-04-25 05:41:00,52.6,41.9,30.13,North,8,2.0,7.0,67,0.00,,,0.00,Wunderground v.1.15,2013-04-25 09:41:00,
2013-04-25 05:44:00,52.5,42.2,30.13,ENE,57,1.0,7.0,68,0.00,,,0.00,Wunderground v.1.15,2013-04-25 09:44:00,
2013-04-25 05:46:00,52.5,42.2,30.13,East,92,3.0,7.0,68,0.00,,,0.00,Wunderground v.1.15,2013-04-25 09:46:00,
2013-04-25 05:49:00,52.4,41.4,30.14,ENE,58,3.0,8.0,66,0.00,,,0.00,Wunderground v.1.15,2013-04-25 09:49:00,
2013-04-25 05:51:00,52.3,41.7,30.14,NNE,14,2.0,4.0,67,0.00,,,0.00,Wunderground v.1.15,2013-04-25 09:51:00,
2013-04-25 05:52:00,52.3,41.7,30.14,NE,41,2.0,4.0,67,0.00,,,0.00,Wunderground v.1.15,2013-04-25 09:52:00,
2013-04-25 05:54:00,52.3,41.7,30.14,ENE,64,1.0,4.0,67,0.00,,,0.00,Wunderground v.1.15,2013-04-25 09:54:00,
2013-04-25 05:56:00,52.2,42.0,30.14,ESE,110,1.0,4.0,68,0.00,,,0.00,Wunderground v.1.15,2013-04-25 09:56:00,
2013-04-25 05:57:00,52.2,42.0,30.14,ESE,110,0.0,4.0,68,0.00,,,0.00,Wunderground v.1.15,2013-04-25 09:57:00,
2013-04-25 06:00:00,52.2,42.0,30.15,East,90,1.0,1.0,68,0.00,,,0.00,Wunderground v.1.15,2013-04-25 10:00:00,
2013-04-25 06:02:00,52.2,42.0,30.15,NW,325,1.0,2.0,68,0.00,,,0.00,Wunderground v.1.15,2013-04-25 10:02:00,
2013-04-25 06:05:00,52.1,41.9,30.15,NW,316,0.0,4.0,68,0.00,,,0.00,Wunderground v.1.15,2013-04-25 10:05:00,
2013-04-25 06:07:00,52.1,42.2,30.15,North,6,2.0,4.0,69,0.00,,,0.00,Wunderground v.1.15,2013-04-25 10:07:00,
2013-04-25 06:08:00,52.1,42.2,30.15,East,93,2.0,4.0,69,0.00,,,0.00,Wunderground v.1.15,2013-04-25 10:08:00,
2013-04-25 06:11:00,52.0,40.6,30.16,NNE,30,3.0,6.0,65,0.00,,,0.00,Wunderground v.1.15,2013-04-25 10:11:00,
2013-04-25 06:12:00,52.0,40.6,30.16,ENE,65,3.0,6.0,65,0.00,,,0.00,Wunderground v.1.15,2013-04-25 10:12:00,
2013-04-25 06:13:00,51.9,40.5,30.16,NW,322,2.0,6.0,65,0.00,,,0.00,Wunderground v.1.15,2013-04-25 10:13:00,
2013-04-25 06:16:00,51.9,40.5,30.16,NE,53,1.0,6.0,65,0.00,,,0.00,Wunderground v.1.15,2013-04-25 10:16:00,
2013-04-25 06:17:00,51.8,40.8,30.16,NE,53,0.0,6.0,66,0.00,,,0.00,Wunderground v.1.15,2013-04-25 10:17:00,
2013-04-25 06:18:00,51.8,40.8,30.16,NE,53,0.0,6.0,66,0.00,,,0.00,Wunderground v.1.15,2013-04-25 10:18:00,
2013-04-25 06:21:00,51.7,39.9,30.17,NW,319,2.0,4.0,64,0.00,,,0.00,Wunderground v.1.15,2013-04-25 10:21:00,
2013-04-25 06:22:00,51.7,40.3,30.17,NW,322,1.0,4.0,65,0.00,,,0.00,Wunderground v.1.15,2013-04-25 10:22:00,
2013-04-25 06:23:00,51.7,40.3,30.17,NNE,18,1.0,4.0,65,0.00,,,0.00,Wunderground v.1.15,2013-04-25 10:23:00,
2013-04-25 06:26:00,51.6,40.6,30.17,East,100,2.0,4.0,66,0.00,,,0.00,Wunderground v.1.15,2013-04-25 10:26:00,
2013-04-25 06:27:00,51.6,40.2,30.17,NNE,26,3.0,4.0,65,0.00,,,0.00,Wunderground v.1.15,2013-04-25 10:27:00,
2013-04-25 06:28:00,51.5,40.1,30.17,NE,50,1.0,4.0,65,0.00,,,0.00,Wunderground v.1.15,2013-04-25 10:28:00,
2013-04-25 06:31:00,51.5,40.5,30.18,NNE,15,2.0,4.0,66,0.00,,,0.00,Wunderground v.1.15,2013-04-25 10:31:00,
2013-04-25 06:32:00,51.4,40.4,30.18,North,8,1.0,4.0,66,0.00,,,0.00,Wunderground v.1.15,2013-04-25 10:32:00,
2013-04-25 06:34:00,51.4,40.4,30.18,ENE,70,1.0,4.0,66,0.00,,,0.00,Wunderground v.1.15,2013-04-25 10:34:00,
2013-04-25 06:37:00,51.4,40.8,30.18,ENE,67,1.0,4.0,67,0.00,,,0.00,Wunderground v.1.15,2013-04-25 10:37:00,
2013-04-25 06:39:00,51.3,40.7,30.18,ENE,72,2.0,4.0,67,0.00,,,0.00,Wunderground v.1.15,2013-04-25 10:39:00,
2013-04-25 06:42:00,51.2,40.6,30.18,NE,53,1.0,4.0,67,0.00,,,0.00,Wunderground v.1.15,2013-04-25 10:42:00,
2013-04-25 06:43:00,51.1,40.5,30.18,NNW,345,2.0,4.0,67,0.00,,,0.00,Wunderground v.1.15,2013-04-25 10:43:00,
2013-04-25 06:44:00,51.0,40.4,30.19,NW,322,0.0,4.0,67,0.00,,,0.00,Wunderground v.1.15,2013-04-25 10:44:00,
2013-04-25 06:45:00,51.0,40.4,30.19,NW,322,0.0,4.0,67,0.00,,,0.00,Wunderground v.1.15,2013-04-25 10:45:00,
2013-04-25 06:48:00,50.8,40.6,30.19,ENE,61,0.0,4.0,68,0.00,,,0.00,Wunderground v.1.15,2013-04-25 10:48:00,
2013-04-25 06:49:00,50.7,40.1,30.19,ENE,77,1.0,4.0,67,0.00,,,0.00,Wunderground v.1.15,2013-04-25 10:49:00,
2013-04-25 06:50:00,50.7,40.1,30.19,WNW,287,1.0,1.0,67,0.00,,,0.00,Wunderground v.1.15,2013-04-25 10:50:00,
2013-04-25 06:53:00,50.5,39.9,30.19,ENE,65,5.0,9.0,67,0.00,,,0.00,Wunderground v.1.15,2013-04-25 10:53:00,
2013-04-25 06:54:00,50.4,39.9,30.19,WNW,293,3.0,9.0,67,0.00,,,0.00,Wunderground v.1.15,2013-04-25 10:54:00,
2013-04-25 06:55:00,50.3,39.8,30.19,NE,35,2.0,9.0,67,0.00,,,0.00,Wunderground v.1.15,2013-04-25 10:55:00,
2013-04-25 06:58:00,50.0,39.5,30.19,SW,217,2.0,9.0,67,0.00,,,0.00,Wunderground v.1.15,2013-04-25 10:58:00,
2013-04-25 06:59:00,49.9,39.4,30.19,East,86,2.0,9.0,67,0.00,,,0.00,Wunderground v.1.15,2013-04-25 10:59:00,
2013-04-25 07:00:00,49.8,39.7,30.19,ENE,73,1.0,3.0,68,0.00,,,0.00,Wunderground v.1.15,2013-04-25 11:00:00,
2013-04-25 07:03:00,49.7,39.6,30.20,NNW,342,3.0,5.0,68,0.00,,,0.00,Wunderground v.1.15,2013-04-25 11:03:00,
2013-04-25 07:04:00,49.6,39.5,30.20,ENE,61,3.0,5.0,68,0.00,,,0.00,Wunderground v.1.15,2013-04-25 11:04:00,
2013-04-25 07:05:00,49.6,39.8,30.20,ENE,60,2.0,5.0,69,0.00,,,0.00,Wunderground v.1.15,2013-04-25 11:05:00,
2013-04-25 07:08:00,49.5,39.7,30.20,East,98,2.0,5.0,69,0.00,,,0.00,Wunderground v.1.15,2013-04-25 11:08:00,
2013-04-25 07:09:00,49.4,39.7,30.20,East,86,2.0,5.0,69,0.00,,,0.00,Wunderground v.1.15,2013-04-25 11:09:00,
2013-04-25 07:10:00,49.4,39.7,30.20,NE,55,3.0,3.0,69,0.00,,,0.00,Wunderground v.1.15,2013-04-25 11:10:00,
2013-04-25 07:13:00,49.2,39.5,30.20,NW,321,2.0,6.0,69,0.00,,,0.00,Wunderground v.1.15,2013-04-25 11:13:00,
2013-04-25 07:14:00,49.1,39.0,30.20,NE,55,1.0,6.0,68,0.00,,,0.00,Wunderground v.1.15,2013-04-25 11:14:00,
2013-04-25 07:15:00,49.1,39.0,30.20,ENE,70,1.0,6.0,68,0.00,,,0.00,Wunderground v.1.15,2013-04-25 11:15:00,
2013-04-25 07:18:00,48.9,38.8,30.21,NNW,328,5.0,7.0,68,0.00,,,0.00,Wunderground v.1.15,2013-04-25 11:18:00,
2013-04-25 07:20:00,48.9,38.8,30.21,NNE,33,2.0,3.0,68,0.00,,,0.00,Wunderground v.1.15,2013-04-25 11:20:00,
2013-04-25 07:23:00,48.7,38.6,30.21,NE,51,1.0,3.0,68,0.00,,,0.00,Wunderground v.1.15,2013-04-25 11:23:00,
2013-04-25 07:24:00,48.7,38.6,30.21,WNW,294,1.0,3.0,68,0.00,,,0.00,Wunderground v.1.15,2013-04-25 11:24:00,
2013-04-25 07:25:00,48.7,38.6,30.21,WNW,288,1.0,3.0,68,0.00,,,0.00,Wunderground v.1.15,2013-04-25 11:25:00,
2013-04-25 07:26:00,48.7,38.6,30.21,NE,47,1.0,3.0,68,0.00,,,0.00,Wunderground v.1.15,2013-04-25 11:26:00,
2013-04-25 07:29:00,48.7,38.6,30.21,NE,42,0.0,4.0,68,0.00,,,0.00,Wunderground v.1.15,2013-04-25 11:29:00,
2013-04-25 07:30:00,48.7,39.0,30.21,North,11,0.0,2.0,69,0.00,,,0.00,Wunderground v.1.15,2013-04-25 11:30:00,
2013-04-25 07:31:00,48.7,39.0,30.21,NNE,12,0.0,2.0,69,0.00,,,0.00,Wunderground v.1.15,2013-04-25 11:31:00,
2013-04-25 07:34:00,48.7,38.6,30.22,NE,53,6.0,6.0,68,0.00,,,0.00,Wunderground v.1.15,2013-04-25 11:34:00,
2013-04-25 07:35:00,48.7,38.2,30.22,ENE,65,2.0,8.0,67,0.00,,,0.00,Wunderground v.1.15,2013-04-25 11:35:00,
2013-04-25 07:36:00,48.7,38.2,30.21,ENE,65,0.0,8.0,67,0.00,,,0.00,Wunderground v.1.15,2013-04-25 11:36:00,
2013-04-25 07:39:00,48.6,38.1,30.22,North,1,2.0,8.0,67,0.00,,,0.00,Wunderground v.1.15,2013-04-25 11:39:00,
2013-04-25 07:40:00,48.6,37.7,30.22,NE,41,1.0,2.0,66,0.00,,,0.00,Wunderground v.1.15,2013-04-25 11:40:00,
2013-04-25 07:41:00,48.5,38.0,30.22,NE,41,1.0,2.0,67,0.00,,,0.00,Wunderground v.1.15,2013-04-25 11:41:00,
2013-04-25 07:45:00,48.4,37.9,30.22,NE,53,1.0,4.0,67,0.00,,,0.00,Wunderground v.1.15,2013-04-25 11:45:00,
2013-04-25 07:46:00,48.4,38.3,30.22,NE,53,1.0,4.0,68,0.00,,,0.00,Wunderground v.1.15,2013-04-25 11:46:00,
2013-04-25 07:50:00,48.2,38.5,30.22,ENE,58,0.0,2.0,69,0.00,,,0.00,Wunderground v.1.15,2013-04-25 11:50:00,
2013-04-25 07:51:00,48.1,38.4,30.22,NE,37,2.0,2.0,69,0.00,,,0.00,Wunderground v.1.15,2013-04-25 11:51:00,
2013-04-25 07:52:00,48.1,38.4,30.22,NNE,27,0.0,3.0,69,0.00,,,0.00,Wunderground v.1.15,2013-04-25 11:52:00,
2013-04-25 07:55:00,47.8,37.7,30.22,North,1,1.0,5.0,68,0.00,,,0.00,Wunderground v.1.15,2013-04-25 11:55:00,
2013-04-25 07:56:00,47.8,37.7,30.22,East,89,1.0,5.0,68,0.00,,,0.00,Wunderground v.1.15,2013-04-25 11:56:00,
2013-04-25 07:57:00,47.7,37.7,30.22,NNE,27,0.0,5.0,68,0.00,,,0.00,Wunderground v.1.15,2013-04-25 11:57:00,
2013-04-25 08:00:00,47.5,37.5,30.23,NNW,328,3.0,5.0,68,0.00,,,0.00,Wunderground v.1.15,2013-04-25 12:00:00,
2013-04-25 08:01:00,47.5,37.5,30.23,North,6,1.0,5.0,68,0.00,,,0.00,Wunderground v.1.15,2013-04-25 12:01:00,
2013-04-25 08:02:00,47.5,37.5,30.23,ENE,68,2.0,5.0,68,0.00,,,0.00,Wunderground v.1.15,2013-04-25 12:02:00,
2013-04-25 08:06:00,47.4,37.0,30.23,NE,49,1.0,6.0,67,0.00,,,0.00,Wunderground v.1.15,2013-04-25 12:06:00,
2013-04-25 08:07:00,47.4,37.0,30.23,ENE,68,2.0,6.0,67,0.00,,,0.00,Wunderground v.1.15,2013-04-25 12:07:00,
2013-04-25 08:11:00,47.4,37.0,30.23,WNW,294,4.0,4.0,67,0.00,,,0.00,Wunderground v.1.15,2013-04-25 12:11:00,
2013-04-25 08:12:00,47.3,36.9,30.23,NNE,20,1.0,4.0,67,0.00,,,0.00,Wunderground v.1.15,2013-04-25 12:12:00,
2013-04-25 08:16:00,47.3,37.3,30.23,NE,50,0.0,4.0,68,0.00,,,0.00,Wunderground v.1.15,2013-04-25 12:16:00,
2013-04-25 08:17:00,47.3,37.3,30.24,WNW,301,5.0,5.0,68,0.00,,,0.00,Wunderground v.1.15,2013-04-25 12:17:00,
2013-04-25 08:18:00,47.3,36.9,30.24,NE,56,5.0,7.0,67,0.00,,,0.00,Wunderground v.1.15,2013-04-25 12:18:00,
2013-04-25 08:21:00,47.2,36.4,30.24,NNE,27,1.0,6.0,66,0.00,,,0.00,Wunderground v.1.15,2013-04-25 12:21:00,
2013-04-25 08:22:00,47.3,36.5,30.24,ENE,67,2.0,6.0,66,0.00,,,0.00,Wunderground v.1.15,2013-04-25 12:22:00,
2013-04-25 08:23:00,47.3,36.5,30.24,ENE,67,2.0,6.0,66,0.00,,,0.00,Wunderground v.1.15,2013-04-25 12:23:00,
2013-04-25 08:26:00,47.4,36.2,30.24,NE,44,2.0,6.0,65,0.00,,,0.00,Wunderground v.1.15,2013-04-25 12:26:00,
2013-04-25 08:27:00,47.4,36.2,30.24,SW,231,3.0,6.0,65,0.00,,,0.00,Wunderground v.1.15,2013-04-25 12:27:00,
2013-04-25 08:28:00,47.4,36.6,30.24,West,278,3.0,6.0,66,0.00,,,0.00,Wunderground v.1.15,2013-04-25 12:28:00,
2013-04-25 08:29:00,47.4,37.0,30.24,NE,49,3.0,7.0,67,0.00,,,0.00,Wunderground v.1.15,2013-04-25 12:29:00,
2013-04-25 08:31:00,47.5,35.9,30.24,ENE,73,8.0,11.0,64,0.00,,,0.00,Wunderground v.1.15,2013-04-25 12:31:00,
2013-04-25 08:32:00,47.5,35.9,30.24,ENE,57,5.0,11.0,64,0.00,,,0.00,Wunderground v.1.15,2013-04-25 12:32:00,
2013-04-25 08:33:00,47.6,35.6,30.24,ENE,58,1.0,11.0,63,0.00,,,0.00,Wunderground v.1.15,2013-04-25 12:33:00,
2013-04-25 08:34:00,47.6,36.0,30.24,NNE,30,3.0,11.0,64,0.00,,,0.00,Wunderground v.1.15,2013-04-25 12:34:00,
2013-04-25 08:36:00,47.7,36.1,30.24,NE,44,2.0,11.0,64,0.00,,,0.00,Wunderground v.1.15,2013-04-25 12:36:00,
2013-04-25 08:37:00,47.7,36.1,30.24,ENE,64,2.0,11.0,64,0.00,,,0.00,Wunderground v.1.15,2013-04-25 12:37:00,
2013-04-25 08:38:00,47.7,35.3,30.24,East,85,2.0,11.0,62,0.00,,,0.00,Wunderground v.1.15,2013-04-25 12:38:00,
2013-04-25 08:39:00,47.7,35.7,30.24,East,85,0.0,11.0,63,0.00,,,0.00,Wunderground v.1.15,2013-04-25 12:39:00,
2013-04-25 08:41:00,47.8,35.4,30.24,NNW,328,3.0,6.0,62,0.00,,,0.00,Wunderground v.1.15,2013-04-25 12:41:00,
2013-04-25 08:42:00,47.8,35.4,30.24,ENE,70,3.0,6.0,62,0.00,,,0.00,Wunderground v.1.15,2013-04-25 12:42:00,
2013-04-25 08:44:00,47.8,35.4,30.24,ENE,65,1.0,6.0,62,0.00,,,0.00,Wunderground v.1.15,2013-04-25 12:44:00,
2013-04-25 08:46:00,47.9,35.9,30.24,North,5,2.0,6.0,63,0.00,,,0.00,Wunderground v.1.15,2013-04-25 12:46:00,
2013-04-25 08:47:00,48.0,36.0,30.24,NE,36,1.0,6.0,63,0.00,,,0.00,Wunderground v.1.15,2013-04-25 12:47:00,
2013-04-25 08:49:00,48.2,36.2,30.24,ENE,78,2.0,6.0,63,0.00,,,0.00,Wunderground v.1.15,2013-04-25 12:49:00,
2013-04-25 08:52:00,48.6,37.0,30.24,NE,38,1.0,3.0,64,0.00,,,0.00,Wunderground v.1.15,2013-04-25 12:52:00,
2013-04-25 08:54:00,49.0,36.1,30.24,ENE,68,2.0,3.0,61,0.00,,,0.00,Wunderground v.1.15,2013-04-25 12:54:00,
2013-04-25 08:57:00,49.1,35.4,30.24,ENE,74,1.0,8.0,59,0.00,,,0.00,Wunderground v.1.15,2013-04-25 12:57:00,
2013-04-25 09:00:00,49.2,35.5,30.24,NE,53,1.0,2.0,59,0.00,,,0.00,Wunderground v.1.15,2013-04-25 13:00:00,
2013-04-25 09:02:00,49.3,36.0,30.24,NE,49,2.0,3.0,60,0.00,,,0.00,Wunderground v.1.15,2013-04-25 13:02:00,
2013-04-25 09:05:00,49.4,35.7,30.24,NW,325,4.0,6.0,59,0.00,,,0.00,Wunderground v.1.15,2013-04-25 13:05:00,
2013-04-25 09:07:00,49.5,36.2,30.24,NNW,340,1.0,6.0,60,0.00,,,0.00,Wunderground v.1.15,2013-04-25 13:07:00,
2013-04-25 09:08:00,49.5,36.2,30.24,NNE,17,3.0,6.0,60,0.00,,,0.00,Wunderground v.1.15,2013-04-25 13:08:00,
2013-04-25 09:10:00,49.8,36.5,30.24,NE,56,1.0,2.0,60,0.00,,,0.00,Wunderground v.1.15,2013-04-25 13:10:00,
2013-04-25 09:13:00,50.2,36.4,30.24,NNE,32,2.0,3.0,59,0.00,,,0.00,Wunderground v.1.15,2013-04-25 13:13:00,
2013-04-25 09:15:00,50.4,36.2,30.24,NE,55,1.0,4.0,58,0.00,,,0.00,Wunderground v.1.15,2013-04-25 13:15:00,
2013-04-25 09:16:00,50.4,36.2,30.24,ENE,60,2.0,4.0,58,0.00,,,0.00,Wunderground v.1.15,2013-04-25 13:16:00,
2013-04-25 09:18:00,50.4,36.2,30.24,ENE,68,1.0,6.0,58,0.00,,,0.00,Wunderground v.1.15,2013-04-25 13:18:00,
2013-04-25 09:19:00,50.5,36.7,30.24,North,8,4.0,6.0,59,0.00,,,0.00,Wunderground v.1.15,2013-04-25 13:19:00,
2013-04-25 09:20:00,50.5,36.3,30.24,North,11,1.0,2.0,58,0.00,,,0.00,Wunderground v.1.15,2013-04-25 13:20:00,
2013-04-25 09:21:00,50.6,36.4,30.24,NNE,17,0.0,2.0,58,0.00,,,0.00,Wunderground v.1.15,2013-04-25 13:21:00,
2013-04-25 09:23:00,50.7,36.5,30.24,ENE,70,2.0,3.0,58,0.00,,,0.00,Wunderground v.1.15,2013-04-25 13:23:00,
2013-04-25 09:24:00,50.8,36.1,30.24,NNW,348,1.0,4.0,57,0.00,,,0.00,Wunderground v.1.15,2013-04-25 13:24:00,
2013-04-25 09:25:00,51.0,36.7,30.24,NNE,26,1.0,4.0,58,0.00,,,0.00,Wunderground v.1.15,2013-04-25 13:25:00,
2013-04-25 09:26:00,51.0,36.7,30.24,ENE,65,1.0,4.0,58,0.00,,,0.00,Wunderground v.1.15,2013-04-25 13:26:00,
2013-04-25 09:28:00,51.1,36.4,30.24,NE,50,3.0,4.0,57,0.00,,,0.00,Wunderground v.1.15,2013-04-25 13:28:00,
2013-04-25 09:29:00,51.2,36.9,30.24,ENE,69,1.0,4.0,58,0.00,,,0.00,Wunderground v.1.15,2013-04-25 13:29:00,
2013-04-25 09:31:00,51.4,37.1,30.24,NE,39,2.0,4.0,58,0.00,,,0.00,Wunderground v.1.15,2013-04-25 13:31:00,
2013-04-25 09:33:00,51.6,37.3,30.24,NNW,336,1.0,7.0,58,0.00,,,0.00,Wunderground v.1.15,2013-04-25 13:33:00,
2013-04-25 09:34:00,51.7,37.4,30.24,East,84,2.0,8.0,58,0.00,,,0.00,Wunderground v.1.15,2013-04-25 13:34:00,
2013-04-25 09:35:00,51.8,37.0,30.24,NNW,338,4.0,8.0,57,0.00,,,0.00,Wunderground v.1.15,2013-04-25 13:35:00,
2013-04-25 09:36:00,51.8,37.0,30.24,NW,319,4.0,8.0,57,0.00,,,0.00,Wunderground v.1.15,2013-04-25 13:36:00,
2013-04-25 09:38:00,51.7,36.5,30.24,NW,308,1.0,8.0,56,0.00,,,0.00,Wunderground v.1.15,2013-04-25 13:38:00,
2013-04-25 09:39:00,51.6,37.3,30.24,East,82,2.0,8.0,58,0.00,,,0.00,Wunderground v.1.15,2013-04-25 13:39:00,
2013-04-25 09:40:00,51.6,36.4,30.24,SW,233,1.0,3.0,56,0.00,,,0.00,Wunderground v.1.15,2013-04-25 13:40:00,
2013-04-25 09:41:00,51.7,37.8,30.24,NE,37,2.0,5.0,59,0.00,,,0.00,Wunderground v.1.15,2013-04-25 13:41:00,
2013-04-25 09:43:00,51.7,36.9,30.24,NE,50,3.0,5.0,57,0.00,,,0.00,Wunderground v.1.15,2013-04-25 13:43:00,
2013-04-25 09:44:00,51.8,37.0,30.24,NE,55,0.0,5.0,57,0.00,,,0.00,Wunderground v.1.15,2013-04-25 13:44:00,
2013-04-25 09:45:00,51.8,36.6,30.24,NW,325,3.0,5.0,56,0.00,,,0.00,Wunderground v.1.15,2013-04-25 13:45:00,
2013-04-25 09:46:00,51.8,36.6,30.24,East,80,3.0,5.0,56,0.00,,,0.00,Wunderground v.1.15,2013-04-25 13:46:00,
2013-04-25 09:47:00,51.8,36.1,30.24,ESE,120,1.0,5.0,55,0.00,,,0.00,Wunderground v.1.15,2013-04-25 13:47:00,
2013-04-25 09:48:00,51.8,36.1,30.24,NNW,327,3.0,5.0,55,0.00,,,0.00,Wunderground v.1.15,2013-04-25 13:48:00,
2013-04-25 09:49:00,51.8,36.1,30.24,West,274,3.0,5.0,55,0.00,,,0.00,Wunderground v.1.15,2013-04-25 13:49:00,
2013-04-25 09:50:00,51.8,37.0,30.24,NNE,20,3.0,7.0,57,0.00,,,0.00,Wunderground v.1.15,2013-04-25 13:50:00,
2013-04-25 09:51:00,51.8,37.0,30.24,WNW,290,0.0,7.0,57,0.00,,,0.00,Wunderground v.1.15,2013-04-25 13:51:00,
2013-04-25 09:52:00,51.9,36.7,30.24,NW,308,2.0,7.0,56,0.00,,,0.00,Wunderground v.1.15,2013-04-25 13:52:00,
2013-04-25 09:53:00,52.0,38.1,30.24,NW,305,2.0,7.0,59,0.00,,,0.00,Wunderground v.1.15,2013-04-25 13:53:00,
2013-04-25 09:54:00,52.2,37.9,30.24,East,86,3.0,7.0,58,0.00,,,0.00,Wunderground v.1.15,2013-04-25 13:54:00,
2013-04-25 09:56:00,52.3,37.1,30.24,WNW,297,3.0,7.0,56,0.00,,,0.00,Wunderground v.1.15,2013-04-25 13:56:00,
2013-04-25 09:58:00,52.3,36.6,30.24,SE,145,2.0,7.0,55,0.00,,,0.00,Wunderground v.1.15,2013-04-25 13:58:00,
2013-04-25 10:00:00,52.3,37.1,30.24,NW,325,2.0,3.0,56,0.00,,,0.00,Wunderground v.1.15,2013-04-25 14:00:00,
2013-04-25 10:01:00,52.4,37.6,30.24,ENE,74,3.0,4.0,57,0.00,,,0.00,Wunderground v.1.15,2013-04-25 14:01:00,
2013-04-25 10:03:00,52.6,37.3,30.24,SE,143,1.0,4.0,56,0.00,,,0.00,Wunderground v.1.15,2013-04-25 14:03:00,
2013-04-25 10:06:00,53.0,37.7,30.24,NNE,27,4.0,8.0,56,0.00,,,0.00,Wunderground v.1.15,2013-04-25 14:06:00,
2013-04-25 10:07:00,53.0,37.3,30.24,NE,36,4.0,8.0,55,0.00,,,0.00,Wunderground v.1.15,2013-04-25 14:07:00,
2013-04-25 10:08:00,53.0,37.3,30.24,ENE,61,5.0,8.0,55,0.00,,,0.00,Wunderground v.1.15,2013-04-25 14:08:00,
2013-04-25 10:11:00,52.7,37.0,30.24,NNE,23,2.0,3.0,55,0.00,,,0.00,Wunderground v.1.15,2013-04-25 14:11:00,
2013-04-25 10:12:00,52.8,37.1,30.24,WNW,297,2.0,4.0,55,0.00,,,0.00,Wunderground v.1.15,2013-04-25 14:12:00,
2013-04-25 10:13:00,52.8,37.1,30.24,West,281,3.0,4.0,55,0.00,,,0.00,Wunderground v.1.15,2013-04-25 14:13:00,
2013-04-25 10:16:00,52.9,37.2,30.24,ENE,77,1.0,4.0,55,0.00,,,0.00,Wunderground v.1.15,2013-04-25 14:16:00,
2013-04-25 10:17:00,52.9,37.2,30.24,East,79,2.0,4.0,55,0.00,,,0.00,Wunderground v.1.15,2013-04-25 14:17:00,
2013-04-25 10:18:00,53.1,37.3,30.24,NE,56,1.0,4.0,55,0.00,,,0.00,Wunderground v.1.15,2013-04-25 14:18:00,
2013-04-25 10:19:00,53.1,37.8,30.24,NW,312,2.0,4.0,56,0.00,,,0.00,Wunderground v.1.15,2013-04-25 14:19:00,
2013-04-25 10:21:00,53.3,38.0,30.24,NW,322,7.0,7.0,56,0.00,,,0.00,Wunderground v.1.15,2013-04-25 14:21:00,
2013-04-25 10:22:00,53.3,37.1,30.24,NW,305,3.0,7.0,54,0.00,,,0.00,Wunderground v.1.15,2013-04-25 14:22:00,
2013-04-25 10:24:00,53.4,38.1,30.24,SW,215,1.0,7.0,56,0.00,,,0.00,Wunderground v.1.15,2013-04-25 14:24:00,
2013-04-25 10:26:00,53.6,37.8,30.24,ENE,69,2.0,7.0,55,0.00,,,0.00,Wunderground v.1.15,2013-04-25 14:26:00,
2013-04-25 10:27:00,53.7,37.9,30.24,North,351,2.0,7.0,55,0.00,,,0.00,Wunderground v.1.15,2013-04-25 14:27:00,
2013-04-25 10:29:00,53.8,38.5,30.24,WNW,288,0.0,7.0,56,0.00,,,0.00,Wunderground v.1.15,2013-04-25 14:29:00,
2013-04-25 10:31:00,54.1,38.3,30.24,ENE,61,1.0,2.0,55,0.00,,,0.00,Wunderground v.1.15,2013-04-25 14:31:00,
2013-04-25 10:32:00,54.2,38.4,30.24,ENE,76,3.0,5.0,55,0.00,,,0.00,Wunderground v.1.15,2013-04-25 14:32:00,
2013-04-25 10:34:00,54.3,38.5,30.24,NE,53,2.0,5.0,55,0.00,,,0.00,Wunderground v.1.15,2013-04-25 14:34:00,
2013-04-25 10:35:00,54.4,39.5,30.24,ENE,72,4.0,5.0,57,0.00,,,0.00,Wunderground v.1.15,2013-04-25 14:35:00,
2013-04-25 10:36:00,54.6,39.2,30.24,SE,126,4.0,5.0,56,0.00,,,0.00,Wunderground v.1.15,2013-04-25 14:36:00,
2013-04-25 10:37:00,54.7,38.8,30.24,NNW,340,1.0,5.0,55,0.00,,,0.00,Wunderground v.1.15,2013-04-25 14:37:00,
2013-04-25 10:39:00,54.7,37.9,30.24,ESE,105,3.0,5.0,53,0.00,,,0.00,Wunderground v.1.15,2013-04-25 14:39:00,
2013-04-25 10:40:00,54.7,37.9,30.24,East,97,1.0,2.0,53,0.00,,,0.00,Wunderground v.1.15,2013-04-25 14:40:00,
2013-04-25 10:42:00,54.9,39.5,30.24,NW,324,1.0,3.0,56,0.00,,,0.00,Wunderground v.1.15,2013-04-25 14:42:00,
2013-04-25 10:44:00,55.1,38.3,30.24,NNW,340,3.0,4.0,53,0.00,,,0.00,Wunderground v.1.15,2013-04-25 14:44:00,
2013-04-25 10:45:00,55.1,38.7,30.23,NW,319,2.0,4.0,54,0.00,,,0.00,Wunderground v.1.15,2013-04-25 14:45:00,
2013-04-25 10:47:00,55.0,38.2,30.23,NW,311,0.0,4.0,53,0.00,,,0.00,Wunderground v.1.15,2013-04-25 14:47:00,
2013-04-25 10:48:00,55.0,38.2,30.23,NE,56,0.0,4.0,53,0.00,,,0.00,Wunderground v.1.15,2013-04-25 14:48:00,
2013-04-25 10:50:00,55.2,39.8,30.23,NE,49,0.0,2.0,56,0.00,,,0.00,Wunderground v.1.15,2013-04-25 14:50:00,
2013-04-25 10:52:00,55.4,39.0,30.24,WNW,290,3.0,4.0,54,0.00,,,0.00,Wunderground v.1.15,2013-04-25 14:52:00,
2013-04-25 10:53:00,55.4,38.5,30.24,West,281,1.0,4.0,53,0.00,,,0.00,Wunderground v.1.15,2013-04-25 14:53:00,
2013-04-25 10:55:00,55.4,39.0,30.24,NNW,333,4.0,5.0,54,0.00,,,0.00,Wunderground v.1.15,2013-04-25 14:55:00,
2013-04-25 10:57:00,55.5,38.6,30.24,ENE,64,3.0,5.0,53,0.00,,,0.00,Wunderground v.1.15,2013-04-25 14:57:00,
2013-04-25 10:58:00,55.6,38.7,30.24,NNW,347,2.0,5.0,53,0.00,,,0.00,Wunderground v.1.15,2013-04-25 14:58:00,
2013-04-25 11:00:00,55.8,39.9,30.24,NW,325,0.0,2.0,55,0.00,,,0.00,Wunderground v.1.15,2013-04-25 15:00:00,
2013-04-25 11:01:00,55.9,39.5,30.24,WSW,246,1.0,2.0,54,0.00,,,0.00,Wunderground v.1.15,2013-04-25 15:01:00,
2013-04-25 11:02:00,56.2,39.3,30.24,ENE,60,2.0,6.0,53,0.00,,,0.00,Wunderground v.1.15,2013-04-25 15:02:00,
2013-04-25 11:03:00,56.3,39.4,30.24,NNE,14,1.0,6.0,53,0.00,,,0.00,Wunderground v.1.15,2013-04-25 15:03:00,
2013-04-25 11:05:00,56.6,39.2,30.25,East,81,1.0,6.0,52,0.00,,,0.00,Wunderground v.1.15,2013-04-25 15:05:00,
2013-04-25 11:06:00,56.7,39.3,30.25,East,79,0.0,6.0,52,0.00,,,0.00,Wunderground v.1.15,2013-04-25 15:06:00,
2013-04-25 11:07:00,56.7,38.3,30.25,SE,146,0.0,6.0,50,0.00,,,0.00,Wunderground v.1.15,2013-04-25 15:07:00,
2013-04-25 11:08:00,56.8,38.3,30.25,SE,145,1.0,6.0,50,0.00,,,0.00,Wunderground v.1.15,2013-04-25 15:08:00,
2013-04-25 11:10:00,57.0,38.5,30.25,East,84,1.0,2.0,50,0.00,,,0.00,Wunderground v.1.15,2013-04-25 15:10:00,
2013-04-25 11:11:00,57.0,39.0,30.25,NE,53,2.0,3.0,51,0.00,,,0.00,Wunderground v.1.15,2013-04-25 15:11:00,
2013-04-25 11:12:00,57.0,40.5,30.25,NE,46,2.0,4.0,54,0.00,,,0.00,Wunderground v.1.15,2013-04-25 15:12:00,
2013-04-25 11:13:00,57.0,40.5,30.25,North,8,3.0,4.0,54,0.00,,,0.00,Wunderground v.1.15,2013-04-25 15:13:00,
2013-04-25 11:15:00,57.2,38.7,30.25,NE,36,4.0,5.0,50,0.00,,,0.00,Wunderground v.1.15,2013-04-25 15:15:00,
2013-04-25 11:16:00,57.3,39.8,30.25,NE,39,1.0,5.0,52,0.00,,,0.00,Wunderground v.1.15,2013-04-25 15:16:00,
2013-04-25 11:17:00,57.4,39.9,30.25,East,95,4.0,6.0,52,0.00,,,0.00,Wunderground v.1.15,2013-04-25 15:17:00,
2013-04-25 11:18:00,57.3,38.8,30.25,ENE,73,4.0,6.0,50,0.00,,,0.00,Wunderground v.1.15,2013-04-25 15:18:00,
2013-04-25 11:19:00,57.2,38.2,30.25,ENE,65,2.0,6.0,49,0.00,,,0.00,Wunderground v.1.15,2013-04-25 15:19:00,
2013-04-25 11:21:00,56.9,37.4,30.25,NE,56,1.0,4.0,48,0.00,,,0.00,Wunderground v.1.15,2013-04-25 15:21:00,
2013-04-25 11:22:00,56.8,38.9,30.25,ENE,77,1.0,4.0,51,0.00,,,0.00,Wunderground v.1.15,2013-04-25 15:22:00,
2013-04-25 11:23:00,56.8,39.4,30.25,ENE,77,1.0,4.0,52,0.00,,,0.00,Wunderground v.1.15,2013-04-25 15:23:00,
2013-04-25 11:24:00,56.8,38.3,30.25,NNE,19,1.0,4.0,50,0.00,,,0.00,Wunderground v.1.15,2013-04-25 15:24:00,
2013-04-25 11:26:00,57.0,38.5,30.25,WNW,302,2.0,4.0,50,0.00,,,0.00,Wunderground v.1.15,2013-04-25 15:26:00,
2013-04-25 11:27:00,57.2,39.2,30.25,NE,35,3.0,4.0,51,0.00,,,0.00,Wunderground v.1.15,2013-04-25 15:27:00,
2013-04-25 11:28:00,57.3,40.8,30.25,North,6,2.0,4.0,54,0.00,,,0.00,Wunderground v.1.15,2013-04-25 15:28:00,
2013-04-25 11:29:00,57.5,39.5,30.25,ENE,58,2.0,4.0,51,0.00,,,0.00,Wunderground v.1.15,2013-04-25 15:29:00,
2013-04-25 11:31:00,57.4,38.4,30.25,NE,39,2.0,5.0,49,0.00,,,0.00,Wunderground v.1.15,2013-04-25 15:31:00,
2013-04-25 11:32:00,57.4,40.9,30.25,WSW,254,1.0,5.0,54,0.00,,,0.00,Wunderground v.1.15,2013-04-25 15:32:00,
2013-04-25 11:33:00,57.5,39.5,30.25,WNW,292,1.0,5.0,51,0.00,,,0.00,Wunderground v.1.15,2013-04-25 15:33:00,
2013-04-25 11:35:00,57.7,39.7,30.25,ENE,64,1.0,5.0,51,0.00,,,0.00,Wunderground v.1.15,2013-04-25 15:35:00,
2013-04-25 11:36:00,57.8,39.8,30.25,NE,52,2.0,5.0,51,0.00,,,0.00,Wunderground v.1.15,2013-04-25 15:36:00,
2013-04-25 11:38:00,57.9,38.8,30.25,North,351,1.0,5.0,49,0.00,,,0.00,Wunderground v.1.15,2013-04-25 15:38:00,
2013-04-25 11:39:00,58.1,40.1,30.25,NNE,19,1.0,5.0,51,0.00,,,0.00,Wunderground v.1.15,2013-04-25 15:39:00,
2013-04-25 11:40:00,58.2,39.1,30.25,NE,46,3.0,4.0,49,0.00,,,0.00,Wunderground v.1.15,2013-04-25 15:40:00,
2013-04-25 11:41:00,58.0,38.4,30.25,NE,35,2.0,4.0,48,0.00,,,0.00,Wunderground v.1.15,2013-04-25 15:41:00,
2013-04-25 11:43:00,58.0,37.9,30.25,SE,126,1.0,4.0,47,0.00,,,0.00,Wunderground v.1.15,2013-04-25 15:43:00,
2013-04-25 11:44:00,57.9,38.3,30.25,North,354,2.0,4.0,48,0.00,,,0.00,Wunderground v.1.15,2013-04-25 15:44:00,
2013-04-25 11:45:00,57.9,39.4,30.25,East,95,1.0,4.0,50,0.00,,,0.00,Wunderground v.1.15,2013-04-25 15:45:00,
2013-04-25 11:47:00,58.0,38.9,30.24,SSW,211,0.0,4.0,49,0.00,,,0.00,Wunderground v.1.15,2013-04-25 15:47:00,
2013-04-25 11:48:00,58.1,39.5,30.25,NNE,27,2.0,4.0,50,0.00,,,0.00,Wunderground v.1.15,2013-04-25 15:48:00,
2013-04-25 11:49:00,58.2,38.6,30.25,NE,43,3.0,6.0,48,0.00,,,0.00,Wunderground v.1.15,2013-04-25 15:49:00,
2013-04-25 11:51:00,58.0,37.9,30.25,NNW,337,0.0,3.0,47,0.00,,,0.00,Wunderground v.1.15,2013-04-25 15:51:00,
2013-04-25 11:52:00,57.9,39.4,30.25,NW,322,3.0,4.0,50,0.00,,,0.00,Wunderground v.1.15,2013-04-25 15:52:00,
2013-04-25 11:53:00,57.9,39.4,30.25,WNW,301,2.0,4.0,50,0.00,,,0.00,Wunderground v.1.15,2013-04-25 15:53:00,
2013-04-25 11:54:00,57.9,38.3,30.25,North,349,1.0,4.0,48,0.00,,,0.00,Wunderground v.1.15,2013-04-25 15:54:00,
2013-04-25 11:56:00,58.0,38.9,30.25,West,278,3.0,7.0,49,0.00,,,0.00,Wunderground v.1.15,2013-04-25 15:56:00,
2013-04-25 11:57:00,58.0,38.4,30.25,ENE,59,3.0,7.0,48,0.00,,,0.00,Wunderground v.1.15,2013-04-25 15:57:00,
2013-04-25 11:58:00,58.1,38.0,30.25,NNE,32,2.0,7.0,47,0.00,,,0.00,Wunderground v.1.15,2013-04-25 15:58:00,
2013-04-25 11:59:00,58.1,39.5,30.25,NW,322,2.0,7.0,50,0.00,,,0.00,Wunderground v.1.15,2013-04-25 15:59:00,
2013-04-25 12:01:00,58.3,39.2,30.25,NE,50,2.0,3.0,49,0.00,,,0.00,Wunderground v.1.15,2013-04-25 16:01:00,
2013-04-25 12:02:00,58.4,38.2,30.25,NE,53,3.0,3.0,47,0.00,,,0.00,Wunderground v.1.15,2013-04-25 16:02:00,
2013-04-25 12:03:00,58.3,38.1,30.25,North,9,1.0,4.0,47,0.00,,,0.00,Wunderground v.1.15,2013-04-25 16:03:00,
2013-04-25 12:04:00,58.4,39.8,30.25,NW,309,2.0,4.0,50,0.00,,,0.00,Wunderground v.1.15,2013-04-25 16:04:00,
2013-04-25 12:06:00,58.6,39.0,30.25,West,271,2.0,4.0,48,0.00,,,0.00,Wunderground v.1.15,2013-04-25 16:06:00,
2013-04-25 12:07:00,58.7,40.1,30.25,West,259,2.0,4.0,50,0.00,,,0.00,Wunderground v.1.15,2013-04-25 16:07:00,
2013-04-25 12:08:00,58.9,40.8,30.25,ENE,77,3.0,4.0,51,0.00,,,0.00,Wunderground v.1.15,2013-04-25 16:08:00,
2013-04-25 12:09:00,58.9,39.2,30.25,NE,53,2.0,5.0,48,0.00,,,0.00,Wunderground v.1.15,2013-04-25 16:09:00,
2013-04-25 12:11:00,58.9,39.2,30.25,ESE,110,2.0,2.0,48,0.00,,,0.00,Wunderground v.1.15,2013-04-25 16:11:00,
2013-04-25 12:12:00,59.0,39.3,30.25,ENE,61,2.0,2.0,48,0.00,,,0.00,Wunderground v.1.15,2013-04-25 16:12:00,
2013-04-25 12:14:00,59.1,38.3,30.25,East,87,0.0,4.0,46,0.00,,,0.00,Wunderground v.1.15,2013-04-25 16:14:00,
2013-04-25 12:16:00,59.1,38.3,30.25,SSW,207,1.0,5.0,46,0.00,,,0.00,Wunderground v.1.15,2013-04-25 16:16:00,
2013-04-25 12:17:00,59.1,38.3,30.25,SSW,207,1.0,5.0,46,0.00,,,0.00,Wunderground v.1.15,2013-04-25 16:17:00,
2013-04-25 12:18:00,59.2,38.4,30.25,West,274,1.0,5.0,46,0.00,,,0.00,Wunderground v.1.15,2013-04-25 16:18:00,
2013-04-25 12:19:00,59.4,39.1,30.25,NNE,32,2.0,5.0,47,0.00,,,0.00,Wunderground v.1.15,2013-04-25 16:19:00,
2013-04-25 12:20:00,59.5,39.2,30.25,NNW,331,2.0,2.0,47,0.00,,,0.00,Wunderground v.1.15,2013-04-25 16:20:00,
2013-04-25 12:22:00,59.7,39.4,30.25,WNW,300,6.0,8.0,47,0.00,,,0.00,Wunderground v.1.15,2013-04-25 16:22:00,
2013-04-25 12:23:00,59.7,39.4,30.25,North,349,3.0,8.0,47,0.00,,,0.00,Wunderground v.1.15,2013-04-25 16:23:00,
2013-04-25 12:25:00,59.7,40.0,30.25,NNE,28,2.0,8.0,48,0.00,,,0.00,Wunderground v.1.15,2013-04-25 16:25:00,
2013-04-25 12:27:00,59.8,38.4,30.25,WSW,253,3.0,8.0,45,0.00,,,0.00,Wunderground v.1.15,2013-04-25 16:27:00,
2013-04-25 12:28:00,59.8,38.4,30.25,West,276,3.0,8.0,45,0.00,,,0.00,Wunderground v.1.15,2013-04-25 16:28:00,
2013-04-25 12:30:00,59.7,38.9,30.25,NNE,25,1.0,3.0,46,0.00,,,0.00,Wunderground v.1.15,2013-04-25 16:30:00,
2013-04-25 12:32:00,59.8,40.6,30.25,NNE,27,0.0,3.0,49,0.00,,,0.00,Wunderground v.1.15,2013-04-25 16:32:00,
2013-04-25 12:33:00,60.1,40.3,30.25,NNE,23,3.0,3.0,48,0.00,,,0.00,Wunderground v.1.15,2013-04-25 16:33:00,
2013-04-25 12:34:00,60.3,40.0,30.25,NNE,22,2.0,3.0,47,0.00,,,0.00,Wunderground v.1.15,2013-04-25 16:34:00,
2013-04-25 12:35:00,60.3,39.4,30.25,East,101,2.0,8.0,46,0.00,,,0.00,Wunderground v.1.15,2013-04-25 16:35:00,
2013-04-25 12:37:00,60.2,39.9,30.25,WSW,243,2.0,8.0,47,0.00,,,0.00,Wunderground v.1.15,2013-04-25 16:37:00,
2013-04-25 12:39:00,60.3,41.6,30.25,West,271,1.0,8.0,50,0.00,,,0.00,Wunderground v.1.15,2013-04-25 16:39:00,
2013-04-25 12:40:00,60.7,40.9,30.25,North,354,2.0,2.0,48,0.00,,,0.00,Wunderground v.1.15,2013-04-25 16:40:00,
2013-04-25 12:41:00,60.8,41.0,30.25,NE,55,3.0,3.0,48,0.00,,,0.00,Wunderground v.1.15,2013-04-25 16:41:00,
2013-04-25 12:42:00,60.8,39.3,30.25,West,266,5.0,7.0,45,0.00,,,0.00,Wunderground v.1.15,2013-04-25 16:42:00,
2013-04-25 12:45:00,60.6,38.0,30.25,ENE,65,1.0,7.0,43,0.00,,,0.00,Wunderground v.1.15,2013-04-25 16:45:00,
2013-04-25 12:46:00,60.5,37.9,30.25,ENE,57,4.0,7.0,43,0.00,,,0.00,Wunderground v.1.15,2013-04-25 16:46:00,
2013-04-25 12:48:00,60.3,37.7,30.25,NNE,17,2.0,7.0,43,0.00,,,0.00,Wunderground v.1.15,2013-04-25 16:48:00,
2013-04-25 12:50:00,60.3,38.9,30.25,SE,128,1.0,3.0,45,0.00,,,0.00,Wunderground v.1.15,2013-04-25 16:50:00,
2013-04-25 12:51:00,60.4,38.4,30.25,East,79,0.0,3.0,44,0.00,,,0.00,Wunderground v.1.15,2013-04-25 16:51:00,
2013-04-25 12:53:00,60.8,39.3,30.25,ENE,62,2.0,3.0,45,0.00,,,0.00,Wunderground v.1.15,2013-04-25 16:53:00,
2013-04-25 12:55:00,61.1,39.0,30.25,NNW,342,2.0,4.0,44,0.00,,,0.00,Wunderground v.1.15,2013-04-25 16:55:00,
2013-04-25 12:56:00,61.1,39.6,30.25,NNW,337,1.0,4.0,45,0.00,,,0.00,Wunderground v.1.15,2013-04-25 16:56:00,
2013-04-25 12:59:00,61.1,38.4,30.25,ENE,72,1.0,4.0,43,0.00,,,0.00,Wunderground v.1.15,2013-04-25 16:59:00,
2013-04-25 13:00:00,61.0,38.3,30.25,NE,41,2.0,2.0,43,0.00,,,0.00,Wunderground v.1.15,2013-04-25 17:00:00,
2013-04-25 13:01:00,61.0,39.5,30.24,SE,125,1.0,2.0,45,0.00,,,0.00,Wunderground v.1.15,2013-04-25 17:01:00,
2013-04-25 13:04:00,61.3,40.3,30.24,SSW,205,1.0,3.0,46,0.00,,,0.00,Wunderground v.1.15,2013-04-25 17:04:00,
2013-04-25 13:05:00,61.6,42.8,30.24,ENE,72,5.0,5.0,50,0.00,,,0.00,Wunderground v.1.15,2013-04-25 17:05:00,
2013-04-25 13:06:00,61.7,40.1,30.24,NE,51,4.0,6.0,45,0.00,,,0.00,Wunderground v.1.15,2013-04-25 17:06:00,
2013-04-25 13:09:00,61.4,40.4,30.24,East,86,2.0,6.0,46,0.00,,,0.00,Wunderground v.1.15,2013-04-25 17:09:00,
2013-04-25 13:10:00,61.3,40.3,30.24,East,86,1.0,2.0,46,0.00,,,0.00,Wunderground v.1.15,2013-04-25 17:10:00,
2013-04-25 13:11:00,61.3,40.3,30.24,ENE,63,4.0,4.0,46,0.00,,,0.00,Wunderground v.1.15,2013-04-25 17:11:00,
2013-04-25 13:12:00,61.3,40.3,30.24,NE,44,5.0,5.0,46,0.00,,,0.00,Wunderground v.1.15,2013-04-25 17:12:00,
2013-04-25 13:14:00,61.7,41.3,30.24,West,281,2.0,5.0,47,0.00,,,0.00,Wunderground v.1.15,2013-04-25 17:14:00,
2013-04-25 13:15:00,61.9,39.1,30.24,North,349,1.0,5.0,43,0.00,,,0.00,Wunderground v.1.15,2013-04-25 17:15:00,
2013-04-25 13:17:00,62.2,39.4,30.24,ENE,61,4.0,5.0,43,0.00,,,0.00,Wunderground v.1.15,2013-04-25 17:17:00,
2013-04-25 13:20:00,62.8,41.1,30.24,ENE,60,1.0,2.0,45,0.00,,,0.00,Wunderground v.1.15,2013-04-25 17:20:00,
2013-04-25 13:22:00,63.0,38.3,30.24,NW,308,2.0,6.0,40,0.00,,,0.00,Wunderground v.1.15,2013-04-25 17:22:00,
2013-04-25 13:25:00,62.8,38.7,30.24,ENE,57,0.0,6.0,41,0.00,,,0.00,Wunderground v.1.15,2013-04-25 17:25:00,
2013-04-25 13:27:00,62.8,39.4,30.24,ENE,76,1.0,6.0,42,0.00,,,0.00,Wunderground v.1.15,2013-04-25 17:27:00,
2013-04-25 13:30:00,63.0,38.3,30.24,NE,39,1.0,2.0,40,0.00,,,0.00,Wunderground v.1.15,2013-04-25 17:30:00,
2013-04-25 13:31:00,63.1,38.4,30.24,NW,313,3.0,3.0,40,0.00,,,0.00,Wunderground v.1.15,2013-04-25 17:31:00,
2013-04-25 13:32:00,63.2,39.7,30.24,NW,321,2.0,5.0,42,0.00,,,0.00,Wunderground v.1.15,2013-04-25 17:32:00,
2013-04-25 13:35:00,63.3,35.9,30.23,ENE,63,2.0,7.0,36,0.00,,,0.00,Wunderground v.1.15,2013-04-25 17:35:00,
2013-04-25 13:36:00,63.3,36.6,30.24,NE,41,1.0,7.0,37,0.00,,,0.00,Wunderground v.1.15,2013-04-25 17:36:00,
2013-04-25 13:37:00,63.4,36.7,30.24,West,266,1.0,7.0,37,0.00,,,0.00,Wunderground v.1.15,2013-04-25 17:37:00,
2013-04-25 13:40:00,63.5,38.1,30.23,ENE,77,1.0,2.0,39,0.00,,,0.00,Wunderground v.1.15,2013-04-25 17:40:00,
2013-04-25 13:41:00,63.5,38.7,30.23,NNW,338,0.0,4.0,40,0.00,,,0.00,Wunderground v.1.15,2013-04-25 17:41:00,
2013-04-25 13:42:00,63.6,38.8,30.23,WNW,297,0.0,4.0,40,0.00,,,0.00,Wunderground v.1.15,2013-04-25 17:42:00,
2013-04-25 13:45:00,64.0,42.2,30.23,NNE,14,0.0,4.0,45,0.00,,,0.00,Wunderground v.1.15,2013-04-25 17:45:00,
2013-04-25 13:46:00,64.2,40.0,30.24,ENE,63,2.0,4.0,41,0.00,,,0.00,Wunderground v.1.15,2013-04-25 17:46:00,
2013-04-25 13:47:00,64.2,38.7,30.24,ENE,63,1.0,4.0,39,0.00,,,0.00,Wunderground v.1.15,2013-04-25 17:47:00,
2013-04-25 13:50:00,64.2,38.0,30.23,WSW,248,2.0,3.0,38,0.00,,,0.00,Wunderground v.1.15,2013-04-25 17:50:00,
2013-04-25 13:51:00,64.0,37.9,30.23,West,262,3.0,4.0,38,0.00,,,0.00,Wunderground v.1.15,2013-04-25 17:51:00,
2013-04-25 13:52:00,63.9,38.4,30.23,WSW,257,1.0,4.0,39,0.00,,,0.00,Wunderground v.1.15,2013-04-25 17:52:00,
2013-04-25 13:55:00,63.9,40.3,30.23,West,270,0.0,4.0,42,0.00,,,0.00,Wunderground v.1.15,2013-04-25 17:55:00,
2013-04-25 13:57:00,64.2,40.0,30.23,West,277,0.0,4.0,41,0.00,,,0.00,Wunderground v.1.15,2013-04-25 17:57:00,
2013-04-25 13:58:00,64.5,41.5,30.23,NW,307,1.0,4.0,43,0.00,,,0.00,Wunderground v.1.15,2013-04-25 17:58:00,
2013-04-25 14:00:00,64.9,40.0,30.23,NW,309,1.0,1.0,40,0.00,,,0.00,Wunderground v.1.15,2013-04-25 18:00:00,
2013-04-25 14:02:00,65.1,40.8,30.23,NW,307,3.0,4.0,41,0.00,,,0.00,Wunderground v.1.15,2013-04-25 18:02:00,
2013-04-25 14:03:00,65.2,40.3,30.23,NE,54,3.0,4.0,40,0.00,,,0.00,Wunderground v.1.15,2013-04-25 18:03:00,
2013-04-25 14:06:00,65.4,39.8,30.23,NW,305,1.0,4.0,39,0.00,,,0.00,Wunderground v.1.15,2013-04-25 18:06:00,
2013-04-25 14:07:00,65.4,39.8,30.23,SW,231,2.0,4.0,39,0.00,,,0.00,Wunderground v.1.15,2013-04-25 18:07:00,
2013-04-25 14:08:00,65.4,42.3,30.23,NE,45,5.0,6.0,43,0.00,,,0.00,Wunderground v.1.15,2013-04-25 18:08:00,
2013-04-25 14:11:00,65.5,41.2,30.23,ENE,76,2.0,2.0,41,0.00,,,0.00,Wunderground v.1.15,2013-04-25 18:11:00,
2013-04-25 14:12:00,65.5,38.5,30.23,ENE,72,1.0,2.0,37,0.00,,,0.00,Wunderground v.1.15,2013-04-25 18:12:00,
2013-04-25 14:13:00,65.5,38.5,30.23,East,97,1.0,2.0,37,0.00,,,0.00,Wunderground v.1.15,2013-04-25 18:13:00,
2013-04-25 14:16:00,65.6,38.6,30.23,WSW,248,0.0,2.0,37,0.00,,,0.00,Wunderground v.1.15,2013-04-25 18:16:00,
2013-04-25 14:17:00,65.8,38.8,30.22,NNW,348,3.0,3.0,37,0.00,,,0.00,Wunderground v.1.15,2013-04-25 18:17:00,
2013-04-25 14:18:00,65.8,38.8,30.22,North,355,2.0,3.0,37,0.00,,,0.00,Wunderground v.1.15,2013-04-25 18:18:00,
2013-04-25 14:19:00,65.8,38.1,30.22,North,5,0.0,3.0,36,0.00,,,0.00,Wunderground v.1.15,2013-04-25 18:19:00,
2013-04-25 14:22:00,66.2,40.5,30.22,NNE,23,2.0,3.0,39,0.00,,,0.00,Wunderground v.1.15,2013-04-25 18:22:00,
2013-04-25 14:23:00,66.3,36.3,30.22,ENE,58,3.0,4.0,33,0.00,,,0.00,Wunderground v.1.15,2013-04-25 18:23:00,
2013-04-25 14:24:00,66.3,34.7,30.23,WNW,298,2.0,4.0,31,0.00,,,0.00,Wunderground v.1.15,2013-04-25 18:24:00,
2013-04-25 14:27:00,66.2,34.7,30.23,WNW,284,1.0,4.0,31,0.00,,,0.00,Wunderground v.1.15,2013-04-25 18:27:00,
2013-04-25 14:28:00,66.2,34.7,30.22,WNW,284,1.0,4.0,31,0.00,,,0.00,Wunderground v.1.15,2013-04-25 18:28:00,
2013-04-25 14:30:00,66.1,33.7,30.22,ENE,70,1.0,2.0,30,0.00,,,0.00,Wunderground v.1.15,2013-04-25 18:30:00,
2013-04-25 14:32:00,66.0,33.7,30.22,North,355,2.0,2.0,30,0.00,,,0.00,Wunderground v.1.15,2013-04-25 18:32:00,
2013-04-25 14:33:00,66.0,36.1,30.22,NNE,23,2.0,3.0,33,0.00,,,0.00,Wunderground v.1.15,2013-04-25 18:33:00,
2013-04-25 14:34:00,66.1,33.7,30.22,East,98,2.0,3.0,30,0.00,,,0.00,Wunderground v.1.15,2013-04-25 18:34:00,
2013-04-25 14:35:00,66.2,33.8,30.22,WNW,285,2.0,5.0,30,0.00,,,0.00,Wunderground v.1.15,2013-04-25 18:35:00,
2013-04-25 14:37:00,66.3,35.5,30.22,WNW,285,1.0,5.0,32,0.00,,,0.00,Wunderground v.1.15,2013-04-25 18:37:00,
2013-04-25 14:38:00,66.5,39.4,30.22,NNE,32,3.0,5.0,37,0.00,,,0.00,Wunderground v.1.15,2013-04-25 18:38:00,
2013-04-25 14:39:00,66.7,39.6,30.22,ENE,76,2.0,5.0,37,0.00,,,0.00,Wunderground v.1.15,2013-04-25 18:39:00,
2013-04-25 14:40:00,66.8,39.0,30.22,ENE,76,0.0,2.0,36,0.00,,,0.00,Wunderground v.1.15,2013-04-25 18:40:00,
2013-04-25 14:42:00,67.0,38.4,30.22,SSW,212,0.0,2.0,35,0.00,,,0.00,Wunderground v.1.15,2013-04-25 18:42:00,
2013-04-25 14:43:00,67.1,39.2,30.22,SW,235,0.0,2.0,36,0.00,,,0.00,Wunderground v.1.15,2013-04-25 18:43:00,
2013-04-25 14:44:00,67.1,39.2,30.22,SW,235,0.0,2.0,36,0.00,,,0.00,Wunderground v.1.15,2013-04-25 18:44:00,
2013-04-25 14:45:00,67.3,40.1,30.22,NE,35,2.0,3.0,37,0.00,,,0.00,Wunderground v.1.15,2013-04-25 18:45:00,
2013-04-25 14:46:00,67.4,40.2,30.22,NW,321,1.0,3.0,37,0.00,,,0.00,Wunderground v.1.15,2013-04-25 18:46:00,
2013-04-25 14:48:00,67.6,40.4,30.22,NE,52,3.0,5.0,37,0.00,,,0.00,Wunderground v.1.15,2013-04-25 18:48:00,
2013-04-25 14:49:00,67.5,38.9,30.22,ENE,58,1.0,5.0,35,0.00,,,0.00,Wunderground v.1.15,2013-04-25 18:49:00,
2013-04-25 14:50:00,67.4,40.2,30.22,South,173,1.0,2.0,37,0.00,,,0.00,Wunderground v.1.15,2013-04-25 18:50:00,
2013-04-25 14:51:00,67.4,39.5,30.22,SW,230,0.0,2.0,36,0.00,,,0.00,Wunderground v.1.15,2013-04-25 18:51:00,
2013-04-25 14:53:00,67.5,40.3,30.22,NW,324,1.0,2.0,37,0.00,,,0.00,Wunderground v.1.15,2013-04-25 18:53:00,
2013-04-25 14:54:00,67.6,39.7,30.22,NNE,14,2.0,2.0,36,0.00,,,0.00,Wunderground v.1.15,2013-04-25 18:54:00,
2013-04-25 14:55:00,67.7,40.5,30.22,East,101,2.0,3.0,37,0.00,,,0.00,Wunderground v.1.15,2013-04-25 18:55:00,
2013-04-25 14:56:00,67.7,39.8,30.22,NW,316,1.0,3.0,36,0.00,,,0.00,Wunderground v.1.15,2013-04-25 18:56:00,
2013-04-25 14:58:00,67.7,36.0,30.22,NE,44,1.0,3.0,31,0.00,,,0.00,Wunderground v.1.15,2013-04-25 18:58:00,
2013-04-25 15:00:00,67.6,35.9,30.22,WNW,302,2.0,3.0,31,0.00,,,0.00,Wunderground v.1.15,2013-04-25 19:00:00,
2013-04-25 15:01:00,67.5,35.8,30.21,WNW,293,2.0,3.0,31,0.00,,,0.00,Wunderground v.1.15,2013-04-25 19:01:00,
2013-04-25 15:03:00,67.3,37.2,30.21,North,360,1.0,4.0,33,0.00,,,0.00,Wunderground v.1.15,2013-04-25 19:03:00,
2013-04-25 15:05:00,67.4,38.0,30.21,East,84,2.0,4.0,34,0.00,,,0.00,Wunderground v.1.15,2013-04-25 19:05:00,
2013-04-25 15:06:00,67.4,37.3,30.21,NE,50,0.0,4.0,33,0.00,,,0.00,Wunderground v.1.15,2013-04-25 19:06:00,
2013-04-25 15:08:00,67.4,37.3,30.22,NW,314,2.0,5.0,33,0.00,,,0.00,Wunderground v.1.15,2013-04-25 19:08:00,
2013-04-25 15:10:00,67.2,34.7,30.22,NNE,18,4.0,4.0,30,0.00,,,0.00,Wunderground v.1.15,2013-04-25 19:10:00,
2013-04-25 15:11:00,67.0,35.3,30.22,WNW,296,1.0,4.0,31,0.00,,,0.00,Wunderground v.1.15,2013-04-25 19:11:00,
2013-04-25 15:12:00,66.9,38.3,30.22,NNW,340,3.0,4.0,35,0.00,,,0.00,Wunderground v.1.15,2013-04-25 19:12:00,
2013-04-25 15:14:00,66.7,37.4,30.22,ENE,58,1.0,4.0,34,0.00,,,0.00,Wunderground v.1.15,2013-04-25 19:14:00,
2013-04-25 15:15:00,66.8,37.5,30.22,East,83,2.0,4.0,34,0.00,,,0.00,Wunderground v.1.15,2013-04-25 19:15:00,
2013-04-25 15:16:00,67.0,38.4,30.22,ENE,76,1.0,4.0,35,0.00,,,0.00,Wunderground v.1.15,2013-04-25 19:16:00,
2013-04-25 15:17:00,67.1,40.6,30.21,ENE,78,1.0,4.0,38,0.00,,,0.00,Wunderground v.1.15,2013-04-25 19:17:00,
2013-04-25 15:19:00,67.5,37.4,30.21,North,357,2.0,4.0,33,0.00,,,0.00,Wunderground v.1.15,2013-04-25 19:19:00,
2013-04-25 15:20:00,67.5,37.4,30.21,WNW,287,1.0,2.0,33,0.00,,,0.00,Wunderground v.1.15,2013-04-25 19:20:00,
2013-04-25 15:21:00,67.6,37.5,30.21,West,264,1.0,2.0,33,0.00,,,0.00,Wunderground v.1.15,2013-04-25 19:21:00,
2013-04-25 15:22:00,67.6,37.5,30.21,West,277,0.0,2.0,33,0.00,,,0.00,Wunderground v.1.15,2013-04-25 19:22:00,
2013-04-25 15:24:00,67.9,38.5,30.21,ENE,76,1.0,2.0,34,0.00,,,0.00,Wunderground v.1.15,2013-04-25 19:24:00,
2013-04-25 15:25:00,68.0,38.6,30.21,ENE,76,0.0,2.0,34,0.00,,,0.00,Wunderground v.1.15,2013-04-25 19:25:00,
2013-04-25 15:26:00,68.2,40.2,30.21,East,94,1.0,2.0,36,0.00,,,0.00,Wunderground v.1.15,2013-04-25 19:26:00,
2013-04-25 15:27:00,68.3,40.3,30.21,ENE,68,2.0,2.0,36,0.00,,,0.00,Wunderground v.1.15,2013-04-25 19:27:00,
2013-04-25 15:30:00,68.4,38.2,30.21,NE,35,2.0,2.0,33,0.00,,,0.00,Wunderground v.1.15,2013-04-25 19:30:00,
2013-04-25 15:31:00,68.3,35.6,30.21,NW,307,3.0,5.0,30,0.00,,,0.00,Wunderground v.1.15,2013-04-25 19:31:00,
2013-04-25 15:32:00,68.2,35.6,30.21,NW,315,2.0,5.0,30,0.00,,,0.00,Wunderground v.1.15,2013-04-25 19:32:00,
2013-04-25 15:35:00,67.9,36.1,30.21,ENE,67,1.0,5.0,31,0.00,,,0.00,Wunderground v.1.15,2013-04-25 19:35:00,
2013-04-25 15:37:00,67.9,38.5,30.21,ENE,74,3.0,5.0,34,0.00,,,0.00,Wunderground v.1.15,2013-04-25 19:37:00,
2013-04-25 15:40:00,67.8,36.0,30.20,SW,229,2.0,3.0,31,0.00,,,0.00,Wunderground v.1.15,2013-04-25 19:40:00,
2013-04-25 15:41:00,67.8,36.0,30.20,SW,233,1.0,3.0,31,0.00,,,0.00,Wunderground v.1.15,2013-04-25 19:41:00,
2013-04-25 15:42:00,67.8,36.8,30.20,SW,222,0.0,3.0,32,0.00,,,0.00,Wunderground v.1.15,2013-04-25 19:42:00,
2013-04-25 15:43:00,67.8,36.8,30.20,ENE,74,2.0,3.0,32,0.00,,,0.00,Wunderground v.1.15,2013-04-25 19:43:00,
2013-04-25 15:45:00,68.1,36.3,30.20,NNW,330,1.0,3.0,31,0.00,,,0.00,Wunderground v.1.15,2013-04-25 19:45:00,
2013-04-25 15:46:00,68.1,36.3,30.20,NW,314,1.0,3.0,31,0.00,,,0.00,Wunderground v.1.15,2013-04-25 19:46:00,
2013-04-25 15:47:00,68.0,35.4,30.20,WNW,298,1.0,3.0,30,0.00,,,0.00,Wunderground v.1.15,2013-04-25 19:47:00,
2013-04-25 15:48:00,67.9,37.7,30.20,WSW,255,0.0,3.0,33,0.00,,,0.00,Wunderground v.1.15,2013-04-25 19:48:00,
2013-04-25 15:50:00,68.1,39.4,30.20,NNW,342,3.0,3.0,35,0.00,,,0.00,Wunderground v.1.15,2013-04-25 19:50:00,
2013-04-25 15:51:00,68.1,39.4,30.20,North,352,2.0,3.0,35,0.00,,,0.00,Wunderground v.1.15,2013-04-25 19:51:00,
2013-04-25 15:53:00,68.3,37.3,30.20,North,5,0.0,3.0,32,0.00,,,0.00,Wunderground v.1.15,2013-04-25 19:53:00,
2013-04-25 15:54:00,68.4,41.8,30.20,NE,51,0.0,3.0,38,0.00,,,0.00,Wunderground v.1.15,2013-04-25 19:54:00,
2013-04-25 15:56:00,68.8,40.0,30.20,ENE,72,2.0,3.0,35,0.00,,,0.00,Wunderground v.1.15,2013-04-25 19:56:00,
2013-04-25 15:58:00,68.8,36.1,30.20,NNE,14,1.0,3.0,30,0.00,,,0.00,Wunderground v.1.15,2013-04-25 19:58:00,
2013-04-25 15:59:00,68.8,36.9,30.20,ENE,58,1.0,3.0,31,0.00,,,0.00,Wunderground v.1.15,2013-04-25 19:59:00,
2013-04-25 16:01:00,68.9,40.1,30.20,North,3,1.0,2.0,35,0.00,,,0.00,Wunderground v.1.15,2013-04-25 20:01:00,
2013-04-25 16:03:00,69.0,37.1,30.20,WSW,250,1.0,3.0,31,0.00,,,0.00,Wunderground v.1.15,2013-04-25 20:03:00,
2013-04-25 16:04:00,69.0,37.9,30.19,WSW,248,0.0,3.0,32,0.00,,,0.00,Wunderground v.1.15,2013-04-25 20:04:00,
2013-04-25 16:06:00,69.2,39.6,30.20,WSW,248,0.0,3.0,34,0.00,,,0.00,Wunderground v.1.15,2013-04-25 20:06:00,
2013-04-25 16:08:00,69.5,38.3,30.20,WSW,237,1.0,3.0,32,0.00,,,0.00,Wunderground v.1.15,2013-04-25 20:08:00,
2013-04-25 16:10:00,69.7,37.7,30.20,WSW,237,0.0,1.0,31,0.00,,,0.00,Wunderground v.1.15,2013-04-25 20:10:00,
2013-04-25 16:11:00,69.8,36.9,30.20,East,86,1.0,2.0,30,0.00,,,0.00,Wunderground v.1.15,2013-04-25 20:11:00,
2013-04-25 16:12:00,69.9,38.7,30.20,SE,125,1.0,2.0,32,0.00,,,0.00,Wunderground v.1.15,2013-04-25 20:12:00,
2013-04-25 16:14:00,69.9,39.5,30.19,ESE,122,1.0,3.0,33,0.00,,,0.00,Wunderground v.1.15,2013-04-25 20:14:00,
2013-04-25 16:15:00,69.8,35.2,30.19,South,169,1.0,3.0,28,0.00,,,0.00,Wunderground v.1.15,2013-04-25 20:15:00,
2013-04-25 16:16:00,69.7,35.1,30.19,WNW,293,1.0,3.0,28,0.00,,,0.00,Wunderground v.1.15,2013-04-25 20:16:00,
2013-04-25 16:17:00,69.7,36.0,30.19,WNW,294,1.0,3.0,29,0.00,,,0.00,Wunderground v.1.15,2013-04-25 20:17:00,
2013-04-25 16:19:00,69.6,35.0,30.19,SSE,158,1.0,3.0,28,0.00,,,0.00,Wunderground v.1.15,2013-04-25 20:19:00,
2013-04-25 16:20:00,69.5,38.3,30.19,ENE,72,2.0,2.0,32,0.00,,,0.00,Wunderground v.1.15,2013-04-25 20:20:00,
2013-04-25 16:21:00,69.5,36.7,30.19,ENE,68,2.0,3.0,30,0.00,,,0.00,Wunderground v.1.15,2013-04-25 20:21:00,
2013-04-25 16:22:00,69.5,35.8,30.19,ENE,68,1.0,3.0,29,0.00,,,0.00,Wunderground v.1.15,2013-04-25 20:22:00,
2013-04-25 16:24:00,69.4,37.4,30.19,ENE,70,0.0,3.0,31,0.00,,,0.00,Wunderground v.1.15,2013-04-25 20:24:00,
2013-04-25 16:25:00,69.5,39.1,30.19,East,79,2.0,3.0,33,0.00,,,0.00,Wunderground v.1.15,2013-04-25 20:25:00,
2013-04-25 16:27:00,69.5,37.5,30.19,SE,129,1.0,3.0,31,0.00,,,0.00,Wunderground v.1.15,2013-04-25 20:27:00,
2013-04-25 16:29:00,69.7,35.1,30.19,SSE,167,1.0,3.0,28,0.00,,,0.00,Wunderground v.1.15,2013-04-25 20:29:00,
2013-04-25 16:30:00,69.8,35.2,30.19,SW,215,0.0,1.0,28,0.00,,,0.00,Wunderground v.1.15,2013-04-25 20:30:00,
2013-04-25 16:32:00,70.0,34.5,30.19,SSW,205,1.0,1.0,27,0.00,,,0.00,Wunderground v.1.15,2013-04-25 20:32:00,
2013-04-25 16:33:00,70.0,35.4,30.19,SSW,205,1.0,1.0,28,0.00,,,0.00,Wunderground v.1.15,2013-04-25 20:33:00,
2013-04-25 16:34:00,70.0,35.4,30.19,SSW,205,0.0,1.0,28,0.00,,,0.00,Wunderground v.1.15,2013-04-25 20:34:00,
2013-04-25 16:36:00,70.0,35.4,30.19,East,97,1.0,3.0,28,0.00,,,0.00,Wunderground v.1.15,2013-04-25 20:36:00,
2013-04-25 16:37:00,69.9,34.4,30.19,WSW,254,0.0,3.0,27,0.00,,,0.00,Wunderground v.1.15,2013-04-25 20:37:00,
2013-04-25 16:38:00,69.9,34.4,30.19,WSW,253,0.0,3.0,27,0.00,,,0.00,Wunderground v.1.15,2013-04-25 20:38:00,
2013-04-25 16:40:00,69.7,34.2,30.19,SSW,210,1.0,1.0,27,0.00,,,0.00,Wunderground v.1.15,2013-04-25 20:40:00,
2013-04-25 16:41:00,69.6,35.9,30.19,SSW,210,0.0,1.0,29,0.00,,,0.00,Wunderground v.1.15,2013-04-25 20:41:00,
2013-04-25 16:42:00,69.6,36.8,30.18,SSW,210,0.0,1.0,30,0.00,,,0.00,Wunderground v.1.15,2013-04-25 20:42:00,
2013-04-25 16:43:00,69.6,37.6,30.18,SSW,210,0.0,1.0,31,0.00,,,0.00,Wunderground v.1.15,2013-04-25 20:43:00,
2013-04-25 16:45:00,69.7,36.9,30.18,NE,44,2.0,2.0,30,0.00,,,0.00,Wunderground v.1.15,2013-04-25 20:45:00,
2013-04-25 16:47:00,69.6,34.1,30.18,NE,39,2.0,2.0,27,0.00,,,0.00,Wunderground v.1.15,2013-04-25 20:47:00,
2013-04-25 16:48:00,69.4,34.9,30.18,SE,129,0.0,2.0,28,0.00,,,0.00,Wunderground v.1.15,2013-04-25 20:48:00,
2013-04-25 16:49:00,69.3,34.8,30.18,SE,130,0.0,2.0,28,0.00,,,0.00,Wunderground v.1.15,2013-04-25 20:49:00,
2013-04-25 16:50:00,69.2,33.8,30.18,SSW,204,0.0,1.0,27,0.00,,,0.00,Wunderground v.1.15,2013-04-25 20:50:00,
2013-04-25 16:52:00,69.1,35.5,30.18,East,89,2.0,2.0,29,0.00,,,0.00,Wunderground v.1.15,2013-04-25 20:52:00,
2013-04-25 16:53:00,69.0,34.5,30.18,East,84,0.0,2.0,28,0.00,,,0.00,Wunderground v.1.15,2013-04-25 20:53:00,
2013-04-25 16:54:00,68.9,36.2,30.18,East,88,1.0,2.0,30,0.00,,,0.00,Wunderground v.1.15,2013-04-25 20:54:00,
2013-04-25 16:55:00,68.8,34.3,30.18,SSW,201,1.0,2.0,28,0.00,,,0.00,Wunderground v.1.15,2013-04-25 20:55:00,
2013-04-25 16:57:00,68.8,33.4,30.18,East,86,1.0,3.0,27,0.00,,,0.00,Wunderground v.1.15,2013-04-25 20:57:00,
2013-04-25 16:58:00,68.7,33.3,30.18,East,86,0.0,3.0,27,0.00,,,0.00,Wunderground v.1.15,2013-04-25 20:58:00,
2013-04-25 16:59:00,68.6,34.2,30.18,East,87,1.0,3.0,28,0.00,,,0.00,Wunderground v.1.15,2013-04-25 20:59:00,
2013-04-25 17:00:00,68.6,33.3,30.18,East,88,0.0,1.0,27,0.00,,,0.00,Wunderground v.1.15,2013-04-25 21:00:00,
2013-04-25 17:02:00,68.6,35.1,30.18,East,86,1.0,2.0,29,0.00,,,0.00,Wunderground v.1.15,2013-04-25 21:02:00,
2013-04-25 17:03:00,68.5,35.0,30.18,East,86,1.0,2.0,29,0.00,,,0.00,Wunderground v.1.15,2013-04-25 21:03:00,
2013-04-25 17:04:00,68.5,36.7,30.18,East,90,2.0,2.0,31,0.00,,,0.00,Wunderground v.1.15,2013-04-25 21:04:00,
2013-04-25 17:05:00,68.4,33.1,30.18,North,4,1.0,3.0,27,0.00,,,0.00,Wunderground v.1.15,2013-04-25 21:05:00,
2013-04-25 17:07:00,68.2,32.0,30.18,SW,228,1.0,3.0,26,0.00,,,0.00,Wunderground v.1.15,2013-04-25 21:07:00,
2013-04-25 17:08:00,68.2,32.0,30.18,SW,229,0.0,3.0,26,0.00,,,0.00,Wunderground v.1.15,2013-04-25 21:08:00,
2013-04-25 17:09:00,68.2,32.9,30.18,SW,228,0.0,3.0,27,0.00,,,0.00,Wunderground v.1.15,2013-04-25 21:09:00,
2013-04-25 17:10:00,68.2,33.8,30.18,SE,134,1.0,1.0,28,0.00,,,0.00,Wunderground v.1.15,2013-04-25 21:10:00,
2013-04-25 17:11:00,68.1,33.7,30.18,SE,134,0.0,1.0,28,0.00,,,0.00,Wunderground v.1.15,2013-04-25 21:11:00,
2013-04-25 17:12:00,68.2,32.9,30.18,SE,135,0.0,1.0,27,0.00,,,0.00,Wunderground v.1.15,2013-04-25 21:12:00,
2013-04-25 17:13:00,68.1,31.9,30.18,SE,135,0.0,1.0,26,0.00,,,0.00,Wunderground v.1.15,2013-04-25 21:13:00,
2013-04-25 17:14:00,68.2,32.0,30.18,SSW,210,1.0,1.0,26,0.00,,,0.00,Wunderground v.1.15,2013-04-25 21:14:00,
2013-04-25 17:15:00,68.1,31.9,30.18,SSW,210,0.0,1.0,26,0.00,,,0.00,Wunderground v.1.15,2013-04-25 21:15:00,
2013-04-25 17:16:00,68.1,31.9,30.18,SE,131,0.0,1.0,26,0.00,,,0.00,Wunderground v.1.15,2013-04-25 21:16:00,
2013-04-25 17:17:00,68.1,32.8,30.18,SE,132,0.0,1.0,27,0.00,,,0.00,Wunderground v.1.15,2013-04-25 21:17:00,
2013-04-25 17:19:00,68.1,32.8,30.18,SE,133,0.0,1.0,27,0.00,,,0.00,Wunderground v.1.15,2013-04-25 21:19:00,
2013-04-25 17:20:00,68.1,34.6,30.18,SE,133,0.0,0.0,29,0.00,,,0.00,Wunderground v.1.15,2013-04-25 21:20:00,
2013-04-25 17:22:00,68.1,33.7,30.18,ESE,117,1.0,1.0,28,0.00,,,0.00,Wunderground v.1.15,2013-04-25 21:22:00,
2013-04-25 17:24:00,68.1,33.7,30.18,ESE,121,0.0,1.0,28,0.00,,,0.00,Wunderground v.1.15,2013-04-25 21:24:00,
2013-04-25 17:25:00,68.1,33.7,30.18,ESE,121,0.0,1.0,28,0.00,,,0.00,Wunderground v.1.15,2013-04-25 21:25:00,
2013-04-25 17:27:00,68.2,34.7,30.18,ESE,121,1.0,1.0,29,0.00,,,0.00,Wunderground v.1.15,2013-04-25 21:27:00,
2013-04-25 17:29:00,68.3,32.1,30.18,SE,134,1.0,2.0,26,0.00,,,0.00,Wunderground v.1.15,2013-04-25 21:29:00,
2013-04-25 17:30:00,68.2,33.8,30.18,SE,138,1.0,1.0,28,0.00,,,0.00,Wunderground v.1.15,2013-04-25 21:30:00,
2013-04-25 17:32:00,68.2,32.9,30.17,SE,129,0.0,1.0,27,0.00,,,0.00,Wunderground v.1.15,2013-04-25 21:32:00,
2013-04-25 17:33:00,68.1,31.9,30.18,SE,129,0.0,1.0,26,0.00,,,0.00,Wunderground v.1.15,2013-04-25 21:33:00,
2013-04-25 17:34:00,68.1,31.9,30.18,SE,129,0.0,1.0,26,0.00,,,0.00,Wunderground v.1.15,2013-04-25 21:34:00,
2013-04-25 17:35:00,68.0,31.8,30.18,SE,129,0.0,1.0,26,0.00,,,0.00,Wunderground v.1.15,2013-04-25 21:35:00,
2013-04-25 17:36:00,68.0,31.8,30.18,SE,129,1.0,1.0,26,0.00,,,0.00,Wunderground v.1.15,2013-04-25 21:36:00,
2013-04-25 17:37:00,67.9,34.4,30.17,SW,229,1.0,1.0,29,0.00,,,0.00,Wunderground v.1.15,2013-04-25 21:37:00,
2013-04-25 17:38:00,67.9,34.4,30.17,West,266,1.0,1.0,29,0.00,,,0.00,Wunderground v.1.15,2013-04-25 21:38:00,
2013-04-25 17:39:00,67.9,35.3,30.17,WSW,253,1.0,2.0,30,0.00,,,0.00,Wunderground v.1.15,2013-04-25 21:39:00,
2013-04-25 17:40:00,67.9,34.4,30.17,West,261,1.0,1.0,29,0.00,,,0.00,Wunderground v.1.15,2013-04-25 21:40:00,
2013-04-25 17:41:00,67.8,34.4,30.18,West,264,1.0,1.0,29,0.00,,,0.00,Wunderground v.1.15,2013-04-25 21:41:00,
2013-04-25 17:42:00,67.8,35.2,30.18,West,266,1.0,1.0,30,0.00,,,0.00,Wunderground v.1.15,2013-04-25 21:42:00,
2013-04-25 17:43:00,67.8,33.5,30.18,West,281,1.0,1.0,28,0.00,,,0.00,Wunderground v.1.15,2013-04-25 21:43:00,
2013-04-25 17:44:00,67.8,34.4,30.18,West,264,0.0,2.0,29,0.00,,,0.00,Wunderground v.1.15,2013-04-25 21:44:00,
2013-04-25 17:45:00,67.8,36.8,30.18,West,264,0.0,2.0,32,0.00,,,0.00,Wunderground v.1.15,2013-04-25 21:45:00,
2013-04-25 17:46:00,67.8,36.8,30.18,West,264,0.0,2.0,32,0.00,,,0.00,Wunderground v.1.15,2013-04-25 21:46:00,
2013-04-25 17:47:00,67.8,34.4,30.18,West,264,0.0,2.0,29,0.00,,,0.00,Wunderground v.1.15,2013-04-25 21:47:00,
2013-04-25 17:48:00,67.8,33.5,30.18,SE,126,1.0,2.0,28,0.00,,,0.00,Wunderground v.1.15,2013-04-25 21:48:00,
2013-04-25 17:50:00,67.9,34.4,30.18,ESE,122,1.0,1.0,29,0.00,,,0.00,Wunderground v.1.15,2013-04-25 21:50:00,
2013-04-25 17:51:00,67.9,36.1,30.18,SW,223,1.0,1.0,31,0.00,,,0.00,Wunderground v.1.15,2013-04-25 21:51:00,
2013-04-25 17:52:00,67.9,35.3,30.18,SW,231,2.0,3.0,30,0.00,,,0.00,Wunderground v.1.15,2013-04-25 21:52:00,
2013-04-25 17:54:00,67.9,33.6,30.18,SW,236,2.0,3.0,28,0.00,,,0.00,Wunderground v.1.15,2013-04-25 21:54:00,
2013-04-25 17:55:00,67.8,33.5,30.18,SW,236,1.0,3.0,28,0.00,,,0.00,Wunderground v.1.15,2013-04-25 21:55:00,
2013-04-25 17:56:00,67.8,35.2,30.18,SW,236,0.0,3.0,30,0.00,,,0.00,Wunderground v.1.15,2013-04-25 21:56:00,
2013-04-25 17:58:00,67.7,36.0,30.18,SW,236,1.0,3.0,31,0.00,,,0.00,Wunderground v.1.15,2013-04-25 21:58:00,
2013-04-25 17:59:00,67.7,35.1,30.18,SW,236,0.0,3.0,30,0.00,,,0.00,Wunderground v.1.15,2013-04-25 21:59:00,
2013-04-25 18:00:00,67.7,34.3,30.18,SW,236,1.0,1.0,29,0.00,,,0.00,Wunderground v.1.15,2013-04-25 22:00:00,
2013-04-25 18:01:00,67.7,33.4,30.18,SW,236,0.0,1.0,28,0.00,,,0.00,Wunderground v.1.15,2013-04-25 22:01:00,
2013-04-25 18:02:00,67.7,33.4,30.18,SW,236,1.0,1.0,28,0.00,,,0.00,Wunderground v.1.15,2013-04-25 22:02:00,
2013-04-25 18:03:00,67.8,33.5,30.18,SW,236,0.0,1.0,28,0.00,,,0.00,Wunderground v.1.15,2013-04-25 22:03:00,
2013-04-25 18:04:00,67.7,32.5,30.18,SW,236,0.0,1.0,27,0.00,,,0.00,Wunderground v.1.15,2013-04-25 22:04:00,
2013-04-25 18:05:00,67.7,32.5,30.18,SW,236,0.0,1.0,27,0.00,,,0.00,Wunderground v.1.15,2013-04-25 22:05:00,
2013-04-25 18:06:00,67.7,34.3,30.18,WSW,255,1.0,2.0,29,0.00,,,0.00,Wunderground v.1.15,2013-04-25 22:06:00,
2013-04-25 18:07:00,67.7,33.4,30.18,WSW,255,0.0,2.0,28,0.00,,,0.00,Wunderground v.1.15,2013-04-25 22:07:00,
2013-04-25 18:08:00,67.7,36.0,30.18,SW,218,1.0,2.0,31,0.00,,,0.00,Wunderground v.1.15,2013-04-25 22:08:00,
2013-04-25 18:09:00,67.6,34.2,30.18,SW,228,2.0,2.0,29,0.00,,,0.00,Wunderground v.1.15,2013-04-25 22:09:00,
2013-04-25 18:10:00,67.6,34.2,30.18,WSW,240,1.0,2.0,29,0.00,,,0.00,Wunderground v.1.15,2013-04-25 22:10:00,
2013-04-25 18:11:00,67.6,33.3,30.18,WSW,238,1.0,2.0,28,0.00,,,0.00,Wunderground v.1.15,2013-04-25 22:11:00,
2013-04-25 18:12:00,67.6,34.2,30.18,WSW,238,1.0,2.0,29,0.00,,,0.00,Wunderground v.1.15,2013-04-25 22:12:00,
2013-04-25 18:13:00,67.5,34.1,30.18,WSW,238,1.0,2.0,29,0.00,,,0.00,Wunderground v.1.15,2013-04-25 22:13:00,
2013-04-25 18:15:00,67.5,35.0,30.18,WSW,237,0.0,2.0,30,0.00,,,0.00,Wunderground v.1.15,2013-04-25 22:15:00,
2013-04-25 18:16:00,67.5,35.8,30.18,WSW,238,0.0,2.0,31,0.00,,,0.00,Wunderground v.1.15,2013-04-25 22:16:00,
2013-04-25 18:17:00,67.5,35.0,30.18,WSW,238,0.0,2.0,30,0.00,,,0.00,Wunderground v.1.15,2013-04-25 22:17:00,
2013-04-25 18:19:00,67.5,35.8,30.18,WSW,238,0.0,2.0,31,0.00,,,0.00,Wunderground v.1.15,2013-04-25 22:19:00,
2013-04-25 18:20:00,67.5,35.8,30.18,WSW,238,0.0,1.0,31,0.00,,,0.00,Wunderground v.1.15,2013-04-25 22:20:00,
2013-04-25 18:21:00,67.5,35.0,30.18,WSW,238,0.0,1.0,30,0.00,,,0.00,Wunderground v.1.15,2013-04-25 22:21:00,
2013-04-25 18:22:00,67.4,33.1,30.18,WSW,238,0.0,1.0,28,0.00,,,0.00,Wunderground v.1.15,2013-04-25 22:22:00,
2013-04-25 18:24:00,67.4,33.1,30.18,SE,142,1.0,1.0,28,0.00,,,0.00,Wunderground v.1.15,2013-04-25 22:24:00,
2013-04-25 18:25:00,67.4,33.1,30.18,SE,142,0.0,1.0,28,0.00,,,0.00,Wunderground v.1.15,2013-04-25 22:25:00,
2013-04-25 18:26:00,67.4,34.0,30.18,SE,142,0.0,1.0,29,0.00,,,0.00,Wunderground v.1.15,2013-04-25 22:26:00,
2013-04-25 18:27:00,67.3,33.9,30.18,SE,142,0.0,1.0,29,0.00,,,0.00,Wunderground v.1.15,2013-04-25 22:27:00,
2013-04-25 18:29:00,67.3,33.9,30.18,SE,142,0.0,1.0,29,0.00,,,0.00,Wunderground v.1.15,2013-04-25 22:29:00,
2013-04-25 18:30:00,67.3,34.8,30.18,SE,142,0.0,0.0,30,0.00,,,0.00,Wunderground v.1.15,2013-04-25 22:30:00,
2013-04-25 18:31:00,67.3,37.2,30.18,SE,143,0.0,0.0,33,0.00,,,0.00,Wunderground v.1.15,2013-04-25 22:31:00,
2013-04-25 18:32:00,67.3,37.2,30.18,SE,142,0.0,0.0,33,0.00,,,0.00,Wunderground v.1.15,2013-04-25 22:32:00,
2013-04-25 18:33:00,67.3,38.0,30.18,SE,143,0.0,1.0,34,0.00,,,0.00,Wunderground v.1.15,2013-04-25 22:33:00,
2013-04-25 18:34:00,67.3,37.2,30.18,SE,142,1.0,1.0,33,0.00,,,0.00,Wunderground v.1.15,2013-04-25 22:34:00,
2013-04-25 18:35:00,67.1,37.0,30.18,SE,143,0.0,1.0,33,0.00,,,0.00,Wunderground v.1.15,2013-04-25 22:35:00,
2013-04-25 18:37:00,67.0,39.1,30.18,SE,140,1.0,1.0,36,0.00,,,0.00,Wunderground v.1.15,2013-04-25 22:37:00,
2013-04-25 18:38:00,66.9,38.3,30.18,SE,139,1.0,1.0,35,0.00,,,0.00,Wunderground v.1.15,2013-04-25 22:38:00,
2013-04-25 18:39:00,66.8,39.0,30.18,SE,140,0.0,1.0,36,0.00,,,0.00,Wunderground v.1.15,2013-04-25 22:39:00,
2013-04-25 18:40:00,66.7,38.9,30.18,SE,140,0.0,0.0,36,0.00,,,0.00,Wunderground v.1.15,2013-04-25 22:40:00,
2013-04-25 18:42:00,66.6,37.3,30.18,SE,139,0.0,0.0,34,0.00,,,0.00,Wunderground v.1.15,2013-04-25 22:42:00,
2013-04-25 18:43:00,66.5,38.0,30.18,SE,140,0.0,0.0,35,0.00,,,0.00,Wunderground v.1.15,2013-04-25 22:43:00,
2013-04-25 18:44:00,66.4,40.0,30.18,SE,140,0.0,1.0,38,0.00,,,0.00,Wunderground v.1.15,2013-04-25 22:44:00,
2013-04-25 18:45:00,66.3,39.2,30.18,SE,140,0.0,1.0,37,0.00,,,0.00,Wunderground v.1.15,2013-04-25 22:45:00,
2013-04-25 18:47:00,66.2,39.8,30.18,WSW,258,1.0,1.0,38,0.00,,,0.00,Wunderground v.1.15,2013-04-25 22:47:00,
2013-04-25 18:48:00,66.1,33.7,30.18,West,259,0.0,1.0,30,0.00,,,0.00,Wunderground v.1.15,2013-04-25 22:48:00,
2013-04-25 18:49:00,66.2,33.8,30.18,West,259,0.0,1.0,30,0.00,,,0.00,Wunderground v.1.15,2013-04-25 22:49:00,
2013-04-25 18:50:00,66.2,37.7,30.18,West,259,0.0,0.0,35,0.00,,,0.00,Wunderground v.1.15,2013-04-25 22:50:00,
2013-04-25 18:52:00,66.2,37.7,30.18,WSW,258,0.0,0.0,35,0.00,,,0.00,Wunderground v.1.15,2013-04-25 22:52:00,
2013-04-25 18:53:00,66.1,36.9,30.18,West,259,0.0,0.0,34,0.00,,,0.00,Wunderground v.1.15,2013-04-25 22:53:00,
2013-04-25 18:54:00,66.1,35.4,30.18,West,259,0.0,0.0,32,0.00,,,0.00,Wunderground v.1.15,2013-04-25 22:54:00,
2013-04-25 18:55:00,66.0,36.1,30.18,West,259,0.0,0.0,33,0.00,,,0.00,Wunderground v.1.15,2013-04-25 22:55:00,
2013-04-25 18:57:00,66.0,36.1,30.18,WSW,258,0.0,0.0,33,0.00,,,0.00,Wunderground v.1.15,2013-04-25 22:57:00,
2013-04-25 18:58:00,66.0,36.1,30.18,West,259,0.0,0.0,33,0.00,,,0.00,Wunderground v.1.15,2013-04-25 22:58:00,
2013-04-25 18:59:00,66.0,37.5,30.18,West,259,0.0,0.0,35,0.00,,,0.00,Wunderground v.1.15,2013-04-25 22:59:00,
2013-04-25 19:01:00,65.9,37.5,30.18,West,259,0.0,0.0,35,0.00,,,0.00,Wunderground v.1.15,2013-04-25 23:01:00,
2013-04-25 19:02:00,65.9,36.7,30.18,West,259,0.0,0.0,34,0.00,,,0.00,Wunderground v.1.15,2013-04-25 23:02:00,
2013-04-25 19:03:00,65.9,38.2,30.18,West,259,0.0,0.0,36,0.00,,,0.00,Wunderground v.1.15,2013-04-25 23:03:00,
2013-04-25 19:04:00,65.8,36.6,30.18,West,259,0.0,0.0,34,0.00,,,0.00,Wunderground v.1.15,2013-04-25 23:04:00,
2013-04-25 19:06:00,65.7,36.5,30.18,West,259,0.0,0.0,34,0.00,,,0.00,Wunderground v.1.15,2013-04-25 23:06:00,
2013-04-25 19:07:00,65.7,36.5,30.18,West,259,0.0,0.0,34,0.00,,,0.00,Wunderground v.1.15,2013-04-25 23:07:00,
2013-04-25 19:08:00,65.6,36.5,30.18,WSW,258,0.0,0.0,34,0.00,,,0.00,Wunderground v.1.15,2013-04-25 23:08:00,
2013-04-25 19:09:00,65.6,37.9,30.18,West,259,0.0,0.0,36,0.00,,,0.00,Wunderground v.1.15,2013-04-25 23:09:00,
2013-04-25 19:10:00,65.6,37.9,30.18,WSW,258,0.0,0.0,36,0.00,,,0.00,Wunderground v.1.15,2013-04-25 23:10:00,
2013-04-25 19:11:00,65.4,40.4,30.18,West,259,0.0,0.0,40,0.00,,,0.00,Wunderground v.1.15,2013-04-25 23:11:00,
2013-04-25 19:12:00,65.2,39.6,30.18,WSW,258,0.0,0.0,39,0.00,,,0.00,Wunderground v.1.15,2013-04-25 23:12:00,
2013-04-25 19:13:00,65.2,40.3,30.18,West,259,0.0,0.0,40,0.00,,,0.00,Wunderground v.1.15,2013-04-25 23:13:00,
2013-04-25 19:15:00,64.8,40.5,30.18,West,259,0.0,0.0,41,0.00,,,0.00,Wunderground v.1.15,2013-04-25 23:15:00,
2013-04-25 19:16:00,64.6,41.0,30.18,WSW,258,0.0,0.0,42,0.00,,,0.00,Wunderground v.1.15,2013-04-25 23:16:00,
2013-04-25 19:17:00,64.4,40.2,30.18,WSW,258,0.0,0.0,41,0.00,,,0.00,Wunderground v.1.15,2013-04-25 23:17:00,
2013-04-25 19:18:00,64.3,40.7,30.18,West,259,0.0,0.0,42,0.00,,,0.00,Wunderground v.1.15,2013-04-25 23:18:00,
2013-04-25 19:20:00,64.0,39.8,30.18,WSW,258,0.0,0.0,41,0.00,,,0.00,Wunderground v.1.15,2013-04-25 23:20:00,
2013-04-25 19:21:00,63.9,39.7,30.18,WSW,258,0.0,0.0,41,0.00,,,0.00,Wunderground v.1.15,2013-04-25 23:21:00,
2013-04-25 19:22:00,63.7,40.8,30.18,West,259,0.0,0.0,43,0.00,,,0.00,Wunderground v.1.15,2013-04-25 23:22:00,
2013-04-25 19:23:00,63.6,40.7,30.18,West,259,0.0,0.0,43,0.00,,,0.00,Wunderground v.1.15,2013-04-25 23:23:00,
2013-04-25 19:25:00,63.3,40.4,30.18,WSW,258,0.0,0.0,43,0.00,,,0.00,Wunderground v.1.15,2013-04-25 23:25:00,
2013-04-25 19:26:00,63.3,40.4,30.18,West,259,0.0,0.0,43,0.00,,,0.00,Wunderground v.1.15,2013-04-25 23:26:00,
2013-04-25 19:28:00,63.0,41.3,30.18,West,259,0.0,0.0,45,0.00,,,0.00,Wunderground v.1.15,2013-04-25 23:28:00,
2013-04-25 19:30:00,62.7,41.0,30.19,WSW,258,0.0,0.0,45,0.00,,,0.00,Wunderground v.1.15,2013-04-25 23:30:00,
2013-04-25 19:31:00,62.6,40.4,30.19,West,259,0.0,0.0,44,0.00,,,0.00,Wunderground v.1.15,2013-04-25 23:31:00,
2013-04-25 19:33:00,62.3,40.7,30.19,West,259,0.0,0.0,45,0.00,,,0.00,Wunderground v.1.15,2013-04-25 23:33:00,
2013-04-25 19:35:00,62.0,40.4,30.19,WSW,258,0.0,0.0,45,0.00,,,0.00,Wunderground v.1.15,2013-04-25 23:35:00,
2013-04-25 19:36:00,61.9,40.9,30.19,WSW,258,0.0,0.0,46,0.00,,,0.00,Wunderground v.1.15,2013-04-25 23:36:00,
2013-04-25 19:37:00,61.8,40.8,30.19,WSW,258,0.0,0.0,46,0.00,,,0.00,Wunderground v.1.15,2013-04-25 23:37:00,
2013-04-25 19:38:00,61.7,40.7,30.19,West,259,0.0,0.0,46,0.00,,,0.00,Wunderground v.1.15,2013-04-25 23:38:00,
2013-04-25 19:39:00,61.6,40.6,30.19,West,259,0.0,0.0,46,0.00,,,0.00,Wunderground v.1.15,2013-04-25 23:39:00,
2013-04-25 19:40:00,61.4,41.0,30.19,WSW,258,0.0,0.0,47,0.00,,,0.00,Wunderground v.1.15,2013-04-25 23:40:00,
2013-04-25 19:41:00,61.3,41.4,30.19,West,259,0.0,0.0,48,0.00,,,0.00,Wunderground v.1.15,2013-04-25 23:41:00,
2013-04-25 19:42:00,61.2,41.3,30.19,WSW,258,0.0,0.0,48,0.00,,,0.00,Wunderground v.1.15,2013-04-25 23:42:00,
2013-04-25 19:43:00,61.1,41.2,30.19,West,259,0.0,0.0,48,0.00,,,0.00,Wunderground v.1.15,2013-04-25 23:43:00,
2013-04-25 19:44:00,61.0,41.2,30.19,WSW,258,0.0,0.0,48,0.00,,,0.00,Wunderground v.1.15,2013-04-25 23:44:00,
2013-04-25 19:46:00,60.7,40.9,30.19,West,259,0.0,0.0,48,0.00,,,0.00,Wunderground v.1.15,2013-04-25 23:46:00,
2013-04-25 19:47:00,60.6,40.8,30.19,WSW,258,0.0,0.0,48,0.00,,,0.00,Wunderground v.1.15,2013-04-25 23:47:00,
2013-04-25 19:48:00,60.4,39.5,30.19,West,259,0.0,0.0,46,0.00,,,0.00,Wunderground v.1.15,2013-04-25 23:48:00,
2013-04-25 19:49:00,60.4,39.5,30.19,WSW,258,0.0,0.0,46,0.00,,,0.00,Wunderground v.1.15,2013-04-25 23:49:00,
2013-04-25 19:51:00,60.1,40.9,30.20,WSW,258,0.0,0.0,49,0.00,,,0.00,Wunderground v.1.15,2013-04-25 23:51:00,
2013-04-25 19:53:00,59.9,41.2,30.20,WSW,258,0.0,0.0,50,0.00,,,0.00,Wunderground v.1.15,2013-04-25 23:53:00,
2013-04-25 19:54:00,59.8,41.1,30.20,West,259,0.0,0.0,50,0.00,,,0.00,Wunderground v.1.15,2013-04-25 23:54:00,
2013-04-25 19:56:00,59.5,40.8,30.20,WSW,258,0.0,0.0,50,0.00,,,0.00,Wunderground v.1.15,2013-04-25 23:56:00,
2013-04-25 19:58:00,59.4,40.2,30.20,WSW,258,0.0,0.0,49,0.00,,,0.00,Wunderground v.1.15,2013-04-25 23:58:00,
2013-04-25 19:59:00,59.3,40.7,30.20,West,259,0.0,0.0,50,0.00,,,0.00,Wunderground v.1.15,2013-04-25 23:59:00,
2013-04-25 20:00:00,59.3,40.7,30.20,West,259,0.0,0.0,50,0.00,,,0.00,Wunderground v.1.15,2013-04-26 00:00:00,
2013-04-25 20:01:00,59.1,41.0,30.20,WSW,258,0.0,0.0,51,0.00,,,0.00,Wunderground v.1.15,2013-04-26 00:01:00,
2013-04-25 20:02:00,59.1,41.0,30.20,West,259,0.0,0.0,51,0.00,,,0.00,Wunderground v.1.15,2013-04-26 00:02:00,
2013-04-25 20:03:00,58.9,40.3,30.20,West,259,0.0,0.0,50,0.00,,,0.00,Wunderground v.1.15,2013-04-26 00:03:00,
2013-04-25 20:04:00,58.8,39.7,30.20,West,259,0.0,0.0,49,0.00,,,0.00,Wunderground v.1.15,2013-04-26 00:04:00,
2013-04-25 20:05:00,58.7,40.1,30.20,WSW,258,0.0,0.0,50,0.00,,,0.00,Wunderground v.1.15,2013-04-26 00:05:00,
2013-04-25 20:06:00,58.6,40.0,30.20,West,259,0.0,0.0,50,0.00,,,0.00,Wunderground v.1.15,2013-04-26 00:06:00,
2013-04-25 20:07:00,58.5,39.9,30.20,WSW,258,0.0,0.0,50,0.00,,,0.00,Wunderground v.1.15,2013-04-26 00:07:00,
2013-04-25 20:08:00,58.4,39.8,30.20,West,259,0.0,0.0,50,0.00,,,0.00,Wunderground v.1.15,2013-04-26 00:08:00,
2013-04-25 20:10:00,58.3,40.2,30.20,West,259,0.0,0.0,51,0.00,,,0.00,Wunderground v.1.15,2013-04-26 00:10:00,
2013-04-25 20:11:00,58.1,39.5,30.20,WSW,258,0.0,0.0,50,0.00,,,0.00,Wunderground v.1.15,2013-04-26 00:11:00,
2013-04-25 20:12:00,58.0,39.5,30.20,WSW,258,0.0,0.0,50,0.00,,,0.00,Wunderground v.1.15,2013-04-26 00:12:00,
2013-04-25 20:14:00,57.8,39.8,30.21,West,259,0.0,0.0,51,0.00,,,0.00,Wunderground v.1.15,2013-04-26 00:14:00,
2013-04-25 20:15:00,57.7,39.2,30.20,West,259,0.0,0.0,50,0.00,,,0.00,Wunderground v.1.15,2013-04-26 00:15:00,
2013-04-25 20:16:00,57.5,39.0,30.21,WSW,258,0.0,0.0,50,0.00,,,0.00,Wunderground v.1.15,2013-04-26 00:16:00,
2013-04-25 20:17:00,57.4,39.4,30.21,West,259,0.0,0.0,51,0.00,,,0.00,Wunderground v.1.15,2013-04-26 00:17:00,
2013-04-25 20:19:00,57.2,38.7,30.21,West,259,0.0,0.0,50,0.00,,,0.00,Wunderground v.1.15,2013-04-26 00:19:00,
2013-04-25 20:20:00,57.0,38.5,30.21,WSW,258,0.0,0.0,50,0.00,,,0.00,Wunderground v.1.15,2013-04-26 00:20:00,
2013-04-25 20:21:00,57.0,38.0,30.21,West,259,0.0,0.0,49,0.00,,,0.00,Wunderground v.1.15,2013-04-26 00:21:00,
2013-04-25 20:22:00,56.7,37.7,30.21,West,259,0.0,0.0,49,0.00,,,0.00,Wunderground v.1.15,2013-04-26 00:22:00,
2013-04-25 20:25:00,56.5,39.1,30.21,WSW,258,0.0,0.0,52,0.00,,,0.00,Wunderground v.1.15,2013-04-26 00:25:00,
2013-04-25 20:26:00,56.4,39.0,30.21,WSW,258,0.0,0.0,52,0.00,,,0.00,Wunderground v.1.15,2013-04-26 00:26:00,
2013-04-25 20:27:00,56.3,38.4,30.21,West,259,0.0,0.0,51,0.00,,,0.00,Wunderground v.1.15,2013-04-26 00:27:00,
2013-04-25 20:28:00,56.2,38.3,30.21,West,259,0.0,0.0,51,0.00,,,0.00,Wunderground v.1.15,2013-04-26 00:28:00,
2013-04-25 20:30:00,56.0,39.6,30.21,West,259,0.0,0.0,54,0.00,,,0.00,Wunderground v.1.15,2013-04-26 00:30:00,
2013-04-25 20:31:00,55.9,39.5,30.21,West,259,0.0,0.0,54,0.00,,,0.00,Wunderground v.1.15,2013-04-26 00:31:00,
2013-04-25 20:32:00,55.9,39.5,30.22,West,259,0.0,0.0,54,0.00,,,0.00,Wunderground v.1.15,2013-04-26 00:32:00,
2013-04-25 20:33:00,55.8,39.4,30.22,West,259,0.0,0.0,54,0.00,,,0.00,Wunderground v.1.15,2013-04-26 00:33:00,
2013-04-25 20:36:00,55.4,39.5,30.22,West,259,0.0,0.0,55,0.00,,,0.00,Wunderground v.1.15,2013-04-26 00:36:00,
2013-04-25 20:37:00,55.3,38.9,30.22,WSW,258,0.0,0.0,54,0.00,,,0.00,Wunderground v.1.15,2013-04-26 00:37:00,
2013-04-25 20:38:00,55.3,38.9,30.22,WSW,258,0.0,0.0,54,0.00,,,0.00,Wunderground v.1.15,2013-04-26 00:38:00,
2013-04-25 20:41:00,55.1,37.8,30.22,West,259,0.0,0.0,52,0.00,,,0.00,Wunderground v.1.15,2013-04-26 00:41:00,
2013-04-25 20:42:00,55.1,38.7,30.22,WSW,258,0.0,0.0,54,0.00,,,0.00,Wunderground v.1.15,2013-04-26 00:42:00,
2013-04-25 20:43:00,55.0,38.2,30.22,West,259,0.0,0.0,53,0.00,,,0.00,Wunderground v.1.15,2013-04-26 00:43:00,
2013-04-25 20:46:00,54.9,38.1,30.22,WSW,258,0.0,0.0,53,0.00,,,0.00,Wunderground v.1.15,2013-04-26 00:46:00,
2013-04-25 20:47:00,54.9,38.6,30.22,WSW,258,0.0,0.0,54,0.00,,,0.00,Wunderground v.1.15,2013-04-26 00:47:00,
2013-04-25 20:49:00,54.8,38.9,30.22,West,259,0.0,0.0,55,0.00,,,0.00,Wunderground v.1.15,2013-04-26 00:49:00,
2013-04-25 20:51:00,54.6,38.7,30.23,WSW,258,0.0,0.0,55,0.00,,,0.00,Wunderground v.1.15,2013-04-26 00:51:00,
2013-04-25 20:52:00,54.5,39.1,30.22,WSW,258,0.0,0.0,56,0.00,,,0.00,Wunderground v.1.15,2013-04-26 00:52:00,
2013-04-25 20:54:00,54.5,39.6,30.23,West,259,0.0,0.0,57,0.00,,,0.00,Wunderground v.1.15,2013-04-26 00:54:00,
2013-04-25 20:56:00,54.3,39.4,30.23,WSW,258,0.0,0.0,57,0.00,,,0.00,Wunderground v.1.15,2013-04-26 00:56:00,
2013-04-25 20:57:00,54.3,39.4,30.23,West,259,0.0,0.0,57,0.00,,,0.00,Wunderground v.1.15,2013-04-26 00:57:00,
2013-04-25 20:59:00,54.2,39.7,30.23,West,259,0.0,0.0,58,0.00,,,0.00,Wunderground v.1.15,2013-04-26 00:59:00,
2013-04-25 21:02:00,54.1,40.1,30.23,WSW,258,0.0,0.0,59,0.00,,,0.00,Wunderground v.1.15,2013-04-26 01:02:00,
2013-04-25 21:03:00,54.1,40.1,30.23,West,259,0.0,0.0,59,0.00,,,0.00,Wunderground v.1.15,2013-04-26 01:03:00,
2013-04-25 21:04:00,53.9,39.9,30.23,WSW,258,0.0,0.0,59,0.00,,,0.00,Wunderground v.1.15,2013-04-26 01:04:00,
2013-04-25 21:07:00,53.7,40.1,30.23,WSW,258,0.0,0.0,60,0.00,,,0.00,Wunderground v.1.15,2013-04-26 01:07:00,
2013-04-25 21:08:00,53.7,40.1,30.23,WSW,258,0.0,0.0,60,0.00,,,0.00,Wunderground v.1.15,2013-04-26 01:08:00,
2013-04-25 21:10:00,53.5,39.9,30.23,West,259,0.0,0.0,60,0.00,,,0.00,Wunderground v.1.15,2013-04-26 01:10:00,
2013-04-25 21:12:00,53.2,40.1,30.23,WSW,258,0.0,0.0,61,0.00,,,0.00,Wunderground v.1.15,2013-04-26 01:12:00,
2013-04-25 21:13:00,53.2,40.1,30.23,West,259,0.0,0.0,61,0.00,,,0.00,Wunderground v.1.15,2013-04-26 01:13:00,
2013-04-25 21:15:00,52.9,40.2,30.24,WSW,258,0.0,0.0,62,0.00,,,0.00,Wunderground v.1.15,2013-04-26 01:15:00,
2013-04-25 21:17:00,52.7,40.5,30.24,West,259,0.0,0.0,63,0.00,,,0.00,Wunderground v.1.15,2013-04-26 01:17:00,
2013-04-25 21:18:00,52.7,40.5,30.24,WSW,258,0.0,0.0,63,0.00,,,0.00,Wunderground v.1.15,2013-04-26 01:18:00,
2013-04-25 21:20:00,52.6,40.4,30.24,West,259,0.0,0.0,63,0.00,,,0.00,Wunderground v.1.15,2013-04-26 01:20:00,
2013-04-25 21:22:00,52.5,39.8,30.24,West,259,0.0,0.0,62,0.00,,,0.00,Wunderground v.1.15,2013-04-26 01:22:00,
2013-04-25 21:23:00,52.5,39.8,30.24,West,259,0.0,0.0,62,0.00,,,0.00,Wunderground v.1.15,2013-04-26 01:23:00,
2013-04-25 21:25:00,52.5,39.8,30.24,WSW,258,0.0,0.0,62,0.00,,,0.00,Wunderground v.1.15,2013-04-26 01:25:00,
2013-04-25 21:27:00,52.5,39.8,30.24,West,259,0.0,0.0,62,0.00,,,0.00,Wunderground v.1.15,2013-04-26 01:27:00,
2013-04-25 21:28:00,52.4,39.8,30.24,WSW,258,0.0,0.0,62,0.00,,,0.00,Wunderground v.1.15,2013-04-26 01:28:00,
2013-04-25 21:29:00,52.5,40.3,30.24,WSW,258,0.0,0.0,63,0.00,,,0.00,Wunderground v.1.15,2013-04-26 01:29:00,
2013-04-25 21:30:00,52.5,40.7,30.24,West,259,0.0,0.0,64,0.00,,,0.00,Wunderground v.1.15,2013-04-26 01:30:00,
2013-04-25 21:33:00,52.4,41.4,30.24,WNW,302,0.0,3.0,66,0.00,,,0.00,Wunderground v.1.15,2013-04-26 01:33:00,
2013-04-25 21:34:00,52.4,41.4,30.25,WNW,302,0.0,3.0,66,0.00,,,0.00,Wunderground v.1.15,2013-04-26 01:34:00,
2013-04-25 21:36:00,52.2,41.6,30.25,WNW,302,0.0,3.0,67,0.00,,,0.00,Wunderground v.1.15,2013-04-26 01:36:00,
2013-04-25 21:38:00,52.2,41.6,30.25,WNW,302,0.0,3.0,67,0.00,,,0.00,Wunderground v.1.15,2013-04-26 01:38:00,
2013-04-25 21:39:00,52.1,41.9,30.25,WNW,302,0.0,3.0,68,0.00,,,0.00,Wunderground v.1.15,2013-04-26 01:39:00,
2013-04-25 21:41:00,52.0,42.1,30.25,WNW,302,0.0,1.0,69,0.00,,,0.00,Wunderground v.1.15,2013-04-26 01:41:00,
2013-04-25 21:44:00,51.8,41.9,30.25,WNW,302,0.0,1.0,69,0.00,,,0.00,Wunderground v.1.15,2013-04-26 01:44:00,
2013-04-25 21:45:00,51.8,41.9,30.25,WSW,256,1.0,1.0,69,0.00,,,0.00,Wunderground v.1.15,2013-04-26 01:45:00,
2013-04-25 21:46:00,51.9,41.7,30.25,WSW,248,1.0,1.0,68,0.00,,,0.00,Wunderground v.1.15,2013-04-26 01:46:00,
2013-04-25 21:49:00,52.1,41.5,30.25,WSW,248,0.0,1.0,67,0.00,,,0.00,Wunderground v.1.15,2013-04-26 01:49:00,
2013-04-25 21:50:00,52.1,41.5,30.25,WSW,248,0.0,0.0,67,0.00,,,0.00,Wunderground v.1.15,2013-04-26 01:50:00,
2013-04-25 21:51:00,52.2,41.2,30.25,WSW,248,0.0,0.0,66,0.00,,,0.00,Wunderground v.1.15,2013-04-26 01:51:00,
2013-04-25 21:54:00,52.2,40.8,30.25,WSW,248,0.0,1.0,65,0.00,,,0.00,Wunderground v.1.15,2013-04-26 01:54:00,
2013-04-25 21:55:00,52.2,40.0,30.25,WSW,248,0.0,1.0,63,0.00,,,0.00,Wunderground v.1.15,2013-04-26 01:55:00,
2013-04-25 21:56:00,52.3,40.1,30.25,WSW,248,0.0,1.0,63,0.00,,,0.00,Wunderground v.1.15,2013-04-26 01:56:00,
2013-04-25 21:59:00,52.5,40.3,30.26,WSW,248,1.0,1.0,63,0.00,,,0.00,Wunderground v.1.15,2013-04-26 01:59:00,
2013-04-25 22:00:00,52.5,40.3,30.26,WSW,248,0.0,1.0,63,0.00,,,0.00,Wunderground v.1.15,2013-04-26 02:00:00,
2013-04-25 22:01:00,52.6,39.9,30.26,WSW,248,0.0,1.0,62,0.00,,,0.00,Wunderground v.1.15,2013-04-26 02:01:00,
2013-04-25 22:04:00,52.6,39.5,30.26,WSW,248,0.0,1.0,61,0.00,,,0.00,Wunderground v.1.15,2013-04-26 02:04:00,
2013-04-25 22:05:00,52.6,39.1,30.26,WSW,248,0.0,1.0,60,0.00,,,0.00,Wunderground v.1.15,2013-04-26 02:05:00,
2013-04-25 22:06:00,52.5,39.0,30.26,WSW,248,0.0,1.0,60,0.00,,,0.00,Wunderground v.1.15,2013-04-26 02:06:00,
2013-04-25 22:09:00,52.7,40.5,30.26,WSW,248,0.0,1.0,63,0.00,,,0.00,Wunderground v.1.15,2013-04-26 02:09:00,
2013-04-25 22:10:00,52.7,40.5,30.26,WSW,248,0.0,0.0,63,0.00,,,0.00,Wunderground v.1.15,2013-04-26 02:10:00,
2013-04-25 22:11:00,52.7,40.5,30.26,WSW,250,0.0,0.0,63,0.00,,,0.00,Wunderground v.1.15,2013-04-26 02:11:00,
2013-04-25 22:12:00,52.7,39.2,30.26,WSW,250,0.0,0.0,60,0.00,,,0.00,Wunderground v.1.15,2013-04-26 02:12:00,
2013-04-25 22:14:00,52.7,37.4,30.26,WSW,249,0.0,0.0,56,0.00,,,0.00,Wunderground v.1.15,2013-04-26 02:14:00,
2013-04-25 22:15:00,52.8,37.5,30.26,WSW,238,0.0,0.0,56,0.00,,,0.00,Wunderground v.1.15,2013-04-26 02:15:00,
2013-04-25 22:16:00,52.8,37.1,30.26,SW,235,0.0,0.0,55,0.00,,,0.00,Wunderground v.1.15,2013-04-26 02:16:00,
2013-04-25 22:17:00,53.0,34.3,30.27,SW,226,0.0,0.0,49,0.00,,,0.00,Wunderground v.1.15,2013-04-26 02:17:00,
2013-04-25 22:19:00,53.4,35.7,30.27,SW,230,0.0,0.0,51,0.00,,,0.00,Wunderground v.1.15,2013-04-26 02:19:00,
2013-04-25 22:20:00,53.4,35.7,30.27,SW,230,0.0,0.0,51,0.00,,,0.00,Wunderground v.1.15,2013-04-26 02:20:00,
2013-04-25 22:21:00,53.5,34.8,30.27,SW,229,0.0,0.0,49,0.00,,,0.00,Wunderground v.1.15,2013-04-26 02:21:00,
2013-04-25 22:22:00,53.6,34.9,30.27,SW,230,0.0,0.0,49,0.00,,,0.00,Wunderground v.1.15,2013-04-26 02:22:00,
2013-04-25 22:25:00,53.8,35.1,30.27,SW,229,0.0,0.0,49,0.00,,,0.00,Wunderground v.1.15,2013-04-26 02:25:00,
2013-04-25 22:26:00,53.7,35.5,30.27,SW,230,0.0,0.0,50,0.00,,,0.00,Wunderground v.1.15,2013-04-26 02:26:00,
2013-04-25 22:27:00,53.7,35.5,30.27,SW,229,0.0,0.0,50,0.00,,,0.00,Wunderground v.1.15,2013-04-26 02:27:00,
2013-04-25 22:30:00,53.4,34.2,30.27,WSW,240,0.0,0.0,48,0.00,,,0.00,Wunderground v.1.15,2013-04-26 02:30:00,
2013-04-25 22:31:00,53.3,34.6,30.27,WSW,245,0.0,0.0,49,0.00,,,0.00,Wunderground v.1.15,2013-04-26 02:31:00,
2013-04-25 22:32:00,53.1,33.9,30.27,WSW,245,0.0,0.0,48,0.00,,,0.00,Wunderground v.1.15,2013-04-26 02:32:00,
2013-04-25 22:33:00,53.1,34.4,30.27,WSW,245,0.0,0.0,49,0.00,,,0.00,Wunderground v.1.15,2013-04-26 02:33:00,
2013-04-25 22:35:00,53.1,34.4,30.27,WSW,245,0.0,0.0,49,0.00,,,0.00,Wunderground v.1.15,2013-04-26 02:35:00,
2013-04-25 22:36:00,53.0,34.3,30.27,WSW,245,0.0,0.0,49,0.00,,,0.00,Wunderground v.1.15,2013-04-26 02:36:00,
2013-04-25 22:37:00,53.0,33.8,30.27,WSW,245,0.0,0.0,48,0.00,,,0.00,Wunderground v.1.15,2013-04-26 02:37:00,
2013-04-25 22:38:00,52.9,35.2,30.27,WSW,245,0.0,0.0,51,0.00,,,0.00,Wunderground v.1.15,2013-04-26 02:38:00,
2013-04-25 22:40:00,52.7,34.6,30.27,WSW,256,0.0,0.0,50,0.00,,,0.00,Wunderground v.1.15,2013-04-26 02:40:00,
2013-04-25 22:41:00,52.7,34.6,30.27,WSW,256,0.0,0.0,50,0.00,,,0.00,Wunderground v.1.15,2013-04-26 02:41:00,
2013-04-25 22:43:00,52.5,34.4,30.27,WSW,256,0.0,0.0,50,0.00,,,0.00,Wunderground v.1.15,2013-04-26 02:43:00,
2013-04-25 22:45:00,52.3,33.2,30.28,WSW,256,0.0,0.0,48,0.00,,,0.00,Wunderground v.1.15,2013-04-26 02:45:00,
2013-04-25 22:46:00,52.2,33.6,30.27,WSW,256,0.0,0.0,49,0.00,,,0.00,Wunderground v.1.15,2013-04-26 02:46:00,
2013-04-25 22:48:00,52.1,33.5,30.27,WSW,257,0.0,0.0,49,0.00,,,0.00,Wunderground v.1.15,2013-04-26 02:48:00,
2013-04-25 22:50:00,51.9,32.3,30.27,WSW,256,0.0,0.0,47,0.00,,,0.00,Wunderground v.1.15,2013-04-26 02:50:00,
2013-04-25 22:51:00,51.8,32.2,30.27,WSW,256,0.0,0.0,47,0.00,,,0.00,Wunderground v.1.15,2013-04-26 02:51:00,
2013-04-25 22:52:00,51.8,33.2,30.27,WSW,256,0.0,0.0,49,0.00,,,0.00,Wunderground v.1.15,2013-04-26 02:52:00,
2013-04-25 22:53:00,51.7,32.6,30.27,WSW,256,0.0,0.0,48,0.00,,,0.00,Wunderground v.1.15,2013-04-26 02:53:00,
2013-04-25 22:56:00,51.5,31.9,30.27,WSW,256,0.0,0.0,47,0.00,,,0.00,Wunderground v.1.15,2013-04-26 02:56:00,
2013-04-25 22:57:00,51.5,33.0,30.27,WSW,256,0.0,0.0,49,0.00,,,0.00,Wunderground v.1.15,2013-04-26 02:57:00,
2013-04-25 22:58:00,51.4,31.8,30.27,WSW,255,0.0,0.0,47,0.00,,,0.00,Wunderground v.1.15,2013-04-26 02:58:00,
2013-04-25 23:01:00,51.4,34.3,30.27,WSW,255,0.0,0.0,52,0.00,,,0.00,Wunderground v.1.15,2013-04-26 03:01:00,
2013-04-25 23:02:00,51.4,34.8,30.27,WSW,255,0.0,0.0,53,0.00,,,0.00,Wunderground v.1.15,2013-04-26 03:02:00,
2013-04-25 23:03:00,51.3,34.7,30.27,WSW,255,0.0,0.0,53,0.00,,,0.00,Wunderground v.1.15,2013-04-26 03:03:00,
2013-04-25 23:04:00,51.3,34.7,30.27,WSW,253,0.0,0.0,53,0.00,,,0.00,Wunderground v.1.15,2013-04-26 03:04:00,
2013-04-25 23:06:00,51.2,35.1,30.27,WSW,253,0.0,0.0,54,0.00,,,0.00,Wunderground v.1.15,2013-04-26 03:06:00,
2013-04-25 23:07:00,51.1,34.1,30.28,WSW,253,0.0,0.0,52,0.00,,,0.00,Wunderground v.1.15,2013-04-26 03:07:00,
2013-04-25 23:08:00,51.1,34.1,30.28,WSW,253,0.0,0.0,52,0.00,,,0.00,Wunderground v.1.15,2013-04-26 03:08:00,
2013-04-25 23:09:00,51.0,33.0,30.28,WSW,253,0.0,0.0,50,0.00,,,0.00,Wunderground v.1.15,2013-04-26 03:09:00,
2013-04-25 23:11:00,50.8,33.8,30.28,WSW,253,0.0,0.0,52,0.00,,,0.00,Wunderground v.1.15,2013-04-26 03:11:00,
2013-04-25 23:12:00,50.8,33.8,30.28,WSW,253,0.0,0.0,52,0.00,,,0.00,Wunderground v.1.15,2013-04-26 03:12:00,
2013-04-25 23:13:00,50.7,33.7,30.28,WSW,253,0.0,0.0,52,0.00,,,0.00,Wunderground v.1.15,2013-04-26 03:13:00,
2013-04-25 23:15:00,50.6,34.1,30.28,WSW,253,0.0,0.0,53,0.00,,,0.00,Wunderground v.1.15,2013-04-26 03:15:00,
2013-04-25 23:16:00,50.5,34.9,30.28,WSW,253,0.0,0.0,55,0.00,,,0.00,Wunderground v.1.15,2013-04-26 03:16:00,
2013-04-25 23:17:00,50.5,35.8,30.28,WSW,253,0.0,0.0,57,0.00,,,0.00,Wunderground v.1.15,2013-04-26 03:17:00,
2013-04-25 23:18:00,50.4,36.6,30.28,WSW,253,0.0,0.0,59,0.00,,,0.00,Wunderground v.1.15,2013-04-26 03:18:00,
2013-04-25 23:19:00,50.3,36.5,30.28,WSW,253,0.0,0.0,59,0.00,,,0.00,Wunderground v.1.15,2013-04-26 03:19:00,
2013-04-25 23:20:00,50.2,36.0,30.28,WSW,253,0.0,0.0,58,0.00,,,0.00,Wunderground v.1.15,2013-04-26 03:20:00,
2013-04-25 23:22:00,50.0,34.5,30.28,WSW,253,0.0,0.0,55,0.00,,,0.00,Wunderground v.1.15,2013-04-26 03:22:00,
2013-04-25 23:24:00,49.9,34.4,30.28,WSW,253,0.0,0.0,55,0.00,,,0.00,Wunderground v.1.15,2013-04-26 03:24:00,
2013-04-25 23:25:00,49.7,33.2,30.28,WSW,253,0.0,0.0,53,0.00,,,0.00,Wunderground v.1.15,2013-04-26 03:25:00,
2013-04-25 23:27:00,49.6,32.2,30.28,WSW,253,0.0,0.0,51,0.00,,,0.00,Wunderground v.1.15,2013-04-26 03:27:00,
2013-04-25 23:29:00,49.5,31.6,30.28,WSW,254,0.0,0.0,50,0.00,,,0.00,Wunderground v.1.15,2013-04-26 03:29:00,
2013-04-25 23:30:00,49.5,32.6,30.28,WSW,253,0.0,0.0,52,0.00,,,0.00,Wunderground v.1.15,2013-04-26 03:30:00,
2013-04-25 23:32:00,49.4,32.0,30.28,WSW,252,0.0,0.0,51,0.00,,,0.00,Wunderground v.1.15,2013-04-26 03:32:00,
2013-04-25 23:34:00,49.3,31.4,30.28,WSW,253,0.0,0.0,50,0.00,,,0.00,Wunderground v.1.15,2013-04-26 03:34:00,
2013-04-25 23:35:00,49.3,30.9,30.28,WSW,253,0.0,0.0,49,0.00,,,0.00,Wunderground v.1.15,2013-04-26 03:35:00,
2013-04-25 23:37:00,49.1,31.2,30.28,WSW,253,0.0,0.0,50,0.00,,,0.00,Wunderground v.1.15,2013-04-26 03:37:00,
2013-04-25 23:39:00,49.1,31.2,30.28,WSW,254,0.0,0.0,50,0.00,,,0.00,Wunderground v.1.15,2013-04-26 03:39:00,
2013-04-25 23:40:00,49.1,32.2,30.28,WSW,253,0.0,0.0,52,0.00,,,0.00,Wunderground v.1.15,2013-04-26 03:40:00,
2013-04-25 23:42:00,49.0,33.1,30.28,WSW,253,0.0,0.0,54,0.00,,,0.00,Wunderground v.1.15,2013-04-26 03:42:00,
2013-04-25 23:43:00,49.0,33.1,30.28,WSW,253,0.0,0.0,54,0.00,,,0.00,Wunderground v.1.15,2013-04-26 03:43:00,
2013-04-25 23:44:00,49.0,32.6,30.28,WSW,253,0.0,0.0,53,0.00,,,0.00,Wunderground v.1.15,2013-04-26 03:44:00,
2013-04-25 23:45:00,49.0,32.1,30.28,WSW,253,0.0,0.0,52,0.00,,,0.00,Wunderground v.1.15,2013-04-26 03:45:00,
2013-04-25 23:46:00,49.0,33.1,30.28,WSW,253,0.0,0.0,54,0.00,,,0.00,Wunderground v.1.15,2013-04-26 03:46:00,
2013-04-25 23:48:00,49.0,34.0,30.28,WSW,253,0.0,0.0,56,0.00,,,0.00,Wunderground v.1.15,2013-04-26 03:48:00,
2013-04-25 23:49:00,49.0,35.3,30.28,WSW,253,0.0,0.0,59,0.00,,,0.00,Wunderground v.1.15,2013-04-26 03:49:00,
2013-04-25 23:51:00,49.0,34.4,30.28,WSW,253,0.0,0.0,57,0.00,,,0.00,Wunderground v.1.15,2013-04-26 03:51:00,
2013-04-25 23:53:00,48.9,33.4,30.28,WSW,253,0.0,0.0,55,0.00,,,0.00,Wunderground v.1.15,2013-04-26 03:53:00,
2013-04-25 23:55:00,48.9,34.3,30.28,WSW,253,0.0,0.0,57,0.00,,,0.00,Wunderground v.1.15,2013-04-26 03:55:00,
2013-04-25 23:56:00,48.8,34.7,30.28,WSW,253,0.0,0.0,58,0.00,,,0.00,Wunderground v.1.15,2013-04-26 03:56:00,
2013-04-25 23:59:00,48.7,34.6,30.28,WSW,253,0.0,0.0,58,0.00,,,0.00,Wunderground v.1.15,2013-04-26 03:59:00,